<?xml version="1.0" encoding="UTF-8" standalone="no" ?>
<gpx xmlns="http://www.topografix.com/GPX/1/1" xmlns:xsi="http://www.w3.org/2001/XMLSchema-instance" xsi:schemaLocation="http://www.topografix.com/GPX/1/1 http://www.topografix.com/GPX/1/1/gpx.xsd" version="1.1" creator="VisuGPX - https://www.visugpx.com">
  <metadata>
    <name>micka sortie</name>
    <desc><![CDATA[micka roule]]></desc>
  </metadata>
  <trk>
    <name><![CDATA[micka sortie_1]]></name>
    <trkseg>
      <trkpt lat="45.76254" lon="4.66818">
        <ele>425.5</ele>
        <time>2012-04-07T12:05:58Z</time>
      </trkpt>
      <trkpt lat="45.76254" lon="4.66818">
        <ele>423</ele>
        <time>2012-04-07T12:06:27Z</time>
      </trkpt>
      <trkpt lat="45.76254" lon="4.66818">
        <ele>425.5</ele>
        <time>2012-04-07T12:06:38Z</time>
      </trkpt>
      <trkpt lat="45.76254" lon="4.66818">
        <ele>425.5</ele>
        <time>2012-04-07T12:06:52Z</time>
      </trkpt>
      <trkpt lat="45.76243" lon="4.6683">
        <ele>433</ele>
        <time>2012-04-07T12:06:59Z</time>
      </trkpt>
      <trkpt lat="45.76243" lon="4.6683">
        <ele>424.4</ele>
        <time>2012-04-07T12:07:10Z</time>
      </trkpt>
      <trkpt lat="45.76243" lon="4.6683">
        <ele>424.4</ele>
        <time>2012-04-07T12:07:44Z</time>
      </trkpt>
      <trkpt lat="45.76254" lon="4.66834">
        <ele>438</ele>
        <time>2012-04-07T12:07:50Z</time>
      </trkpt>
      <trkpt lat="45.76254" lon="4.66834">
        <ele>425.6</ele>
        <time>2012-04-07T12:08:01Z</time>
      </trkpt>
      <trkpt lat="45.76254" lon="4.66834">
        <ele>425.6</ele>
        <time>2012-04-07T12:08:03Z</time>
      </trkpt>
      <trkpt lat="45.76262" lon="4.66851">
        <ele>441</ele>
        <time>2012-04-07T12:08:07Z</time>
      </trkpt>
      <trkpt lat="45.76269" lon="4.66853">
        <ele>442</ele>
        <time>2012-04-07T12:08:10Z</time>
      </trkpt>
      <trkpt lat="45.76276" lon="4.66848">
        <ele>444</ele>
        <time>2012-04-07T12:08:13Z</time>
      </trkpt>
      <trkpt lat="45.76286" lon="4.66821">
        <ele>447</ele>
        <time>2012-04-07T12:08:20Z</time>
      </trkpt>
      <trkpt lat="45.76305" lon="4.66801">
        <ele>450</ele>
        <time>2012-04-07T12:08:28Z</time>
      </trkpt>
      <trkpt lat="45.76313" lon="4.66805">
        <ele>452</ele>
        <time>2012-04-07T12:08:31Z</time>
      </trkpt>
      <trkpt lat="45.7632" lon="4.66804">
        <ele>453</ele>
        <time>2012-04-07T12:08:35Z</time>
      </trkpt>
      <trkpt lat="45.76328" lon="4.66786">
        <ele>455</ele>
        <time>2012-04-07T12:08:40Z</time>
      </trkpt>
      <trkpt lat="45.76331" lon="4.66764">
        <ele>461</ele>
        <time>2012-04-07T12:08:44Z</time>
      </trkpt>
      <trkpt lat="45.76333" lon="4.66752">
        <ele>467</ele>
        <time>2012-04-07T12:08:46Z</time>
      </trkpt>
      <trkpt lat="45.76342" lon="4.66713">
        <ele>475</ele>
        <time>2012-04-07T12:08:52Z</time>
      </trkpt>
      <trkpt lat="45.76345" lon="4.667">
        <ele>476</ele>
        <time>2012-04-07T12:08:54Z</time>
      </trkpt>
      <trkpt lat="45.76354" lon="4.66656">
        <ele>477</ele>
        <time>2012-04-07T12:09:00Z</time>
      </trkpt>
      <trkpt lat="45.76358" lon="4.66644">
        <ele>478</ele>
        <time>2012-04-07T12:09:02Z</time>
      </trkpt>
      <trkpt lat="45.76367" lon="4.66609">
        <ele>478</ele>
        <time>2012-04-07T12:09:08Z</time>
      </trkpt>
      <trkpt lat="45.76372" lon="4.66587">
        <ele>478</ele>
        <time>2012-04-07T12:09:12Z</time>
      </trkpt>
      <trkpt lat="45.76378" lon="4.66566">
        <ele>478</ele>
        <time>2012-04-07T12:09:16Z</time>
      </trkpt>
      <trkpt lat="45.76382" lon="4.66546">
        <ele>479</ele>
        <time>2012-04-07T12:09:20Z</time>
      </trkpt>
      <trkpt lat="45.76385" lon="4.66535">
        <ele>479</ele>
        <time>2012-04-07T12:09:22Z</time>
      </trkpt>
      <trkpt lat="45.76392" lon="4.66504">
        <ele>479</ele>
        <time>2012-04-07T12:09:28Z</time>
      </trkpt>
      <trkpt lat="45.76395" lon="4.66483">
        <ele>479</ele>
        <time>2012-04-07T12:09:32Z</time>
      </trkpt>
      <trkpt lat="45.76398" lon="4.66474">
        <ele>479</ele>
        <time>2012-04-07T12:09:34Z</time>
      </trkpt>
      <trkpt lat="45.76407" lon="4.66451">
        <ele>479</ele>
        <time>2012-04-07T12:09:40Z</time>
      </trkpt>
      <trkpt lat="45.76413" lon="4.66433">
        <ele>479</ele>
        <time>2012-04-07T12:09:44Z</time>
      </trkpt>
      <trkpt lat="45.76415" lon="4.66423">
        <ele>479</ele>
        <time>2012-04-07T12:09:46Z</time>
      </trkpt>
      <trkpt lat="45.76422" lon="4.66389">
        <ele>479</ele>
        <time>2012-04-07T12:09:52Z</time>
      </trkpt>
      <trkpt lat="45.76424" lon="4.66377">
        <ele>479</ele>
        <time>2012-04-07T12:09:54Z</time>
      </trkpt>
      <trkpt lat="45.76433" lon="4.66346">
        <ele>480</ele>
        <time>2012-04-07T12:10:00Z</time>
      </trkpt>
      <trkpt lat="45.76437" lon="4.66335">
        <ele>480</ele>
        <time>2012-04-07T12:10:02Z</time>
      </trkpt>
      <trkpt lat="45.76446" lon="4.66303">
        <ele>480</ele>
        <time>2012-04-07T12:10:08Z</time>
      </trkpt>
      <trkpt lat="45.76452" lon="4.66282">
        <ele>480</ele>
        <time>2012-04-07T12:10:12Z</time>
      </trkpt>
      <trkpt lat="45.76458" lon="4.66261">
        <ele>480</ele>
        <time>2012-04-07T12:10:16Z</time>
      </trkpt>
      <trkpt lat="45.76464" lon="4.66242">
        <ele>481</ele>
        <time>2012-04-07T12:10:20Z</time>
      </trkpt>
      <trkpt lat="45.76467" lon="4.66232">
        <ele>481</ele>
        <time>2012-04-07T12:10:22Z</time>
      </trkpt>
      <trkpt lat="45.76476" lon="4.662">
        <ele>480</ele>
        <time>2012-04-07T12:10:28Z</time>
      </trkpt>
      <trkpt lat="45.76482" lon="4.66178">
        <ele>480</ele>
        <time>2012-04-07T12:10:32Z</time>
      </trkpt>
      <trkpt lat="45.76488" lon="4.66156">
        <ele>480</ele>
        <time>2012-04-07T12:10:36Z</time>
      </trkpt>
      <trkpt lat="45.76495" lon="4.66135">
        <ele>480</ele>
        <time>2012-04-07T12:10:40Z</time>
      </trkpt>
      <trkpt lat="45.76498" lon="4.66124">
        <ele>480</ele>
        <time>2012-04-07T12:10:42Z</time>
      </trkpt>
      <trkpt lat="45.76508" lon="4.66093">
        <ele>480</ele>
        <time>2012-04-07T12:10:48Z</time>
      </trkpt>
      <trkpt lat="45.76495" lon="4.66062">
        <ele>481</ele>
        <time>2012-04-07T12:10:56Z</time>
      </trkpt>
      <trkpt lat="45.76483" lon="4.66051">
        <ele>481</ele>
        <time>2012-04-07T12:11:00Z</time>
      </trkpt>
      <trkpt lat="45.76449" lon="4.66035">
        <ele>483</ele>
        <time>2012-04-07T12:11:08Z</time>
      </trkpt>
      <trkpt lat="45.76432" lon="4.66028">
        <ele>484</ele>
        <time>2012-04-07T12:11:12Z</time>
      </trkpt>
      <trkpt lat="45.76415" lon="4.66023">
        <ele>485</ele>
        <time>2012-04-07T12:11:16Z</time>
      </trkpt>
      <trkpt lat="45.76399" lon="4.66015">
        <ele>485</ele>
        <time>2012-04-07T12:11:20Z</time>
      </trkpt>
      <trkpt lat="45.76392" lon="4.66011">
        <ele>485</ele>
        <time>2012-04-07T12:11:22Z</time>
      </trkpt>
      <trkpt lat="45.76374" lon="4.65998">
        <ele>485</ele>
        <time>2012-04-07T12:11:28Z</time>
      </trkpt>
      <trkpt lat="45.76362" lon="4.65991">
        <ele>485</ele>
        <time>2012-04-07T12:11:32Z</time>
      </trkpt>
      <trkpt lat="45.76349" lon="4.65985">
        <ele>485</ele>
        <time>2012-04-07T12:11:36Z</time>
      </trkpt>
      <trkpt lat="45.76342" lon="4.65982">
        <ele>485</ele>
        <time>2012-04-07T12:11:38Z</time>
      </trkpt>
      <trkpt lat="45.76335" lon="4.65979">
        <ele>485</ele>
        <time>2012-04-07T12:11:41Z</time>
      </trkpt>
      <trkpt lat="45.76318" lon="4.65969">
        <ele>485</ele>
        <time>2012-04-07T12:11:47Z</time>
      </trkpt>
      <trkpt lat="45.76306" lon="4.65956">
        <ele>484</ele>
        <time>2012-04-07T12:11:51Z</time>
      </trkpt>
      <trkpt lat="45.76298" lon="4.65948">
        <ele>484</ele>
        <time>2012-04-07T12:11:53Z</time>
      </trkpt>
      <trkpt lat="45.7627" lon="4.65908">
        <ele>484</ele>
        <time>2012-04-07T12:12:00Z</time>
      </trkpt>
      <trkpt lat="45.76254" lon="4.65875">
        <ele>483</ele>
        <time>2012-04-07T12:12:04Z</time>
      </trkpt>
      <trkpt lat="45.7624" lon="4.65841">
        <ele>482</ele>
        <time>2012-04-07T12:12:08Z</time>
      </trkpt>
      <trkpt lat="45.76231" lon="4.65817">
        <ele>481</ele>
        <time>2012-04-07T12:12:11Z</time>
      </trkpt>
      <trkpt lat="45.76226" lon="4.65803">
        <ele>481</ele>
        <time>2012-04-07T12:12:13Z</time>
      </trkpt>
      <trkpt lat="45.76211" lon="4.65769">
        <ele>480</ele>
        <time>2012-04-07T12:12:19Z</time>
      </trkpt>
      <trkpt lat="45.762" lon="4.65751">
        <ele>480</ele>
        <time>2012-04-07T12:12:23Z</time>
      </trkpt>
      <trkpt lat="45.76191" lon="4.65732">
        <ele>480</ele>
        <time>2012-04-07T12:12:27Z</time>
      </trkpt>
      <trkpt lat="45.76184" lon="4.65713">
        <ele>480</ele>
        <time>2012-04-07T12:12:31Z</time>
      </trkpt>
      <trkpt lat="45.7618" lon="4.65695">
        <ele>480</ele>
        <time>2012-04-07T12:12:35Z</time>
      </trkpt>
      <trkpt lat="45.76175" lon="4.65675">
        <ele>480</ele>
        <time>2012-04-07T12:12:40Z</time>
      </trkpt>
      <trkpt lat="45.7617" lon="4.65655">
        <ele>480</ele>
        <time>2012-04-07T12:12:44Z</time>
      </trkpt>
      <trkpt lat="45.76166" lon="4.65634">
        <ele>480</ele>
        <time>2012-04-07T12:12:48Z</time>
      </trkpt>
      <trkpt lat="45.7616" lon="4.6559">
        <ele>480</ele>
        <time>2012-04-07T12:12:56Z</time>
      </trkpt>
      <trkpt lat="45.76158" lon="4.65568">
        <ele>479</ele>
        <time>2012-04-07T12:13:00Z</time>
      </trkpt>
      <trkpt lat="45.76157" lon="4.65545">
        <ele>479</ele>
        <time>2012-04-07T12:13:04Z</time>
      </trkpt>
      <trkpt lat="45.76156" lon="4.65523">
        <ele>479</ele>
        <time>2012-04-07T12:13:08Z</time>
      </trkpt>
      <trkpt lat="45.76149" lon="4.65504">
        <ele>478</ele>
        <time>2012-04-07T12:13:12Z</time>
      </trkpt>
      <trkpt lat="45.76126" lon="4.65484">
        <ele>476</ele>
        <time>2012-04-07T12:13:16Z</time>
      </trkpt>
      <trkpt lat="45.76098" lon="4.65459">
        <ele>474</ele>
        <time>2012-04-07T12:13:20Z</time>
      </trkpt>
      <trkpt lat="45.76071" lon="4.65434">
        <ele>473</ele>
        <time>2012-04-07T12:13:24Z</time>
      </trkpt>
      <trkpt lat="45.76056" lon="4.6543">
        <ele>473</ele>
        <time>2012-04-07T12:13:27Z</time>
      </trkpt>
      <trkpt lat="45.76046" lon="4.65444">
        <ele>473</ele>
        <time>2012-04-07T12:13:31Z</time>
      </trkpt>
      <trkpt lat="45.76045" lon="4.65454">
        <ele>473</ele>
        <time>2012-04-07T12:13:34Z</time>
      </trkpt>
      <trkpt lat="45.76042" lon="4.65464">
        <ele>473</ele>
        <time>2012-04-07T12:13:38Z</time>
      </trkpt>
      <trkpt lat="45.76038" lon="4.65486">
        <ele>474</ele>
        <time>2012-04-07T12:13:47Z</time>
      </trkpt>
      <trkpt lat="45.76035" lon="4.65509">
        <ele>474</ele>
        <time>2012-04-07T12:13:56Z</time>
      </trkpt>
      <trkpt lat="45.76032" lon="4.65528">
        <ele>474</ele>
        <time>2012-04-07T12:14:02Z</time>
      </trkpt>
      <trkpt lat="45.76028" lon="4.6555">
        <ele>474</ele>
        <time>2012-04-07T12:14:08Z</time>
      </trkpt>
      <trkpt lat="45.76025" lon="4.65561">
        <ele>474</ele>
        <time>2012-04-07T12:14:11Z</time>
      </trkpt>
      <trkpt lat="45.76023" lon="4.65573">
        <ele>474</ele>
        <time>2012-04-07T12:14:14Z</time>
      </trkpt>
      <trkpt lat="45.76015" lon="4.65606">
        <ele>474</ele>
        <time>2012-04-07T12:14:23Z</time>
      </trkpt>
      <trkpt lat="45.76012" lon="4.65617">
        <ele>474</ele>
        <time>2012-04-07T12:14:26Z</time>
      </trkpt>
      <trkpt lat="45.76002" lon="4.65648">
        <ele>473</ele>
        <time>2012-04-07T12:14:35Z</time>
      </trkpt>
      <trkpt lat="45.75998" lon="4.65659">
        <ele>473</ele>
        <time>2012-04-07T12:14:38Z</time>
      </trkpt>
      <trkpt lat="45.75988" lon="4.6568">
        <ele>473</ele>
        <time>2012-04-07T12:14:44Z</time>
      </trkpt>
      <trkpt lat="45.75983" lon="4.6569">
        <ele>473</ele>
        <time>2012-04-07T12:14:47Z</time>
      </trkpt>
      <trkpt lat="45.75977" lon="4.65699">
        <ele>473</ele>
        <time>2012-04-07T12:14:50Z</time>
      </trkpt>
      <trkpt lat="45.75964" lon="4.65716">
        <ele>472</ele>
        <time>2012-04-07T12:14:56Z</time>
      </trkpt>
      <trkpt lat="45.75954" lon="4.65726">
        <ele>472</ele>
        <time>2012-04-07T12:15:00Z</time>
      </trkpt>
      <trkpt lat="45.75945" lon="4.65733">
        <ele>472</ele>
        <time>2012-04-07T12:15:03Z</time>
      </trkpt>
      <trkpt lat="45.75933" lon="4.6574">
        <ele>472</ele>
        <time>2012-04-07T12:15:07Z</time>
      </trkpt>
      <trkpt lat="45.75919" lon="4.65744">
        <ele>471</ele>
        <time>2012-04-07T12:15:11Z</time>
      </trkpt>
      <trkpt lat="45.75904" lon="4.65747">
        <ele>471</ele>
        <time>2012-04-07T12:15:15Z</time>
      </trkpt>
      <trkpt lat="45.75887" lon="4.65748">
        <ele>470</ele>
        <time>2012-04-07T12:15:19Z</time>
      </trkpt>
      <trkpt lat="45.75879" lon="4.65748">
        <ele>470</ele>
        <time>2012-04-07T12:15:21Z</time>
      </trkpt>
      <trkpt lat="45.75854" lon="4.65746">
        <ele>469</ele>
        <time>2012-04-07T12:15:27Z</time>
      </trkpt>
      <trkpt lat="45.75839" lon="4.65747">
        <ele>469</ele>
        <time>2012-04-07T12:15:31Z</time>
      </trkpt>
      <trkpt lat="45.7583" lon="4.6575">
        <ele>469</ele>
        <time>2012-04-07T12:15:35Z</time>
      </trkpt>
      <trkpt lat="45.7583" lon="4.6575">
        <ele>407.2</ele>
        <time>2012-04-07T12:15:46Z</time>
      </trkpt>
      <trkpt lat="45.7583" lon="4.6575">
        <ele>407.2</ele>
        <time>2012-04-07T12:15:54Z</time>
      </trkpt>
      <trkpt lat="45.75791" lon="4.65761">
        <ele>469</ele>
        <time>2012-04-07T12:15:58Z</time>
      </trkpt>
      <trkpt lat="45.75783" lon="4.65763">
        <ele>469</ele>
        <time>2012-04-07T12:16:02Z</time>
      </trkpt>
      <trkpt lat="45.75767" lon="4.6577">
        <ele>469</ele>
        <time>2012-04-07T12:16:08Z</time>
      </trkpt>
      <trkpt lat="45.75759" lon="4.65774">
        <ele>469</ele>
        <time>2012-04-07T12:16:12Z</time>
      </trkpt>
      <trkpt lat="45.75748" lon="4.65779">
        <ele>469</ele>
        <time>2012-04-07T12:16:18Z</time>
      </trkpt>
      <trkpt lat="45.75729" lon="4.65781">
        <ele>469</ele>
        <time>2012-04-07T12:16:27Z</time>
      </trkpt>
      <trkpt lat="45.75721" lon="4.65783">
        <ele>468</ele>
        <time>2012-04-07T12:16:30Z</time>
      </trkpt>
      <trkpt lat="45.75705" lon="4.6579">
        <ele>468</ele>
        <time>2012-04-07T12:16:36Z</time>
      </trkpt>
      <trkpt lat="45.75698" lon="4.65793">
        <ele>468</ele>
        <time>2012-04-07T12:16:39Z</time>
      </trkpt>
      <trkpt lat="45.75674" lon="4.65802">
        <ele>468</ele>
        <time>2012-04-07T12:16:47Z</time>
      </trkpt>
      <trkpt lat="45.75629" lon="4.65827">
        <ele>466</ele>
        <time>2012-04-07T12:16:56Z</time>
      </trkpt>
      <trkpt lat="45.75607" lon="4.65845">
        <ele>465</ele>
        <time>2012-04-07T12:17:00Z</time>
      </trkpt>
      <trkpt lat="45.75588" lon="4.65873">
        <ele>464</ele>
        <time>2012-04-07T12:17:04Z</time>
      </trkpt>
      <trkpt lat="45.75568" lon="4.65906">
        <ele>462</ele>
        <time>2012-04-07T12:17:08Z</time>
      </trkpt>
      <trkpt lat="45.75546" lon="4.65937">
        <ele>461</ele>
        <time>2012-04-07T12:17:12Z</time>
      </trkpt>
      <trkpt lat="45.75529" lon="4.65955">
        <ele>461</ele>
        <time>2012-04-07T12:17:15Z</time>
      </trkpt>
      <trkpt lat="45.75508" lon="4.65965">
        <ele>460</ele>
        <time>2012-04-07T12:17:19Z</time>
      </trkpt>
      <trkpt lat="45.75501" lon="4.65967">
        <ele>460</ele>
        <time>2012-04-07T12:17:22Z</time>
      </trkpt>
      <trkpt lat="45.75494" lon="4.65967">
        <ele>460</ele>
        <time>2012-04-07T12:17:26Z</time>
      </trkpt>
      <trkpt lat="45.75487" lon="4.65967">
        <ele>460</ele>
        <time>2012-04-07T12:17:30Z</time>
      </trkpt>
      <trkpt lat="45.7548" lon="4.65964">
        <ele>460</ele>
        <time>2012-04-07T12:17:33Z</time>
      </trkpt>
      <trkpt lat="45.7546" lon="4.65947">
        <ele>459</ele>
        <time>2012-04-07T12:17:40Z</time>
      </trkpt>
      <trkpt lat="45.75448" lon="4.65936">
        <ele>458</ele>
        <time>2012-04-07T12:17:44Z</time>
      </trkpt>
      <trkpt lat="45.75437" lon="4.65924">
        <ele>458</ele>
        <time>2012-04-07T12:17:48Z</time>
      </trkpt>
      <trkpt lat="45.75431" lon="4.65919">
        <ele>457</ele>
        <time>2012-04-07T12:17:50Z</time>
      </trkpt>
      <trkpt lat="45.75412" lon="4.65899">
        <ele>454</ele>
        <time>2012-04-07T12:17:56Z</time>
      </trkpt>
      <trkpt lat="45.754" lon="4.65885">
        <ele>454</ele>
        <time>2012-04-07T12:18:00Z</time>
      </trkpt>
      <trkpt lat="45.75394" lon="4.6588">
        <ele>453</ele>
        <time>2012-04-07T12:18:02Z</time>
      </trkpt>
      <trkpt lat="45.7538" lon="4.65864">
        <ele>452</ele>
        <time>2012-04-07T12:18:08Z</time>
      </trkpt>
      <trkpt lat="45.75373" lon="4.65857">
        <ele>452</ele>
        <time>2012-04-07T12:18:11Z</time>
      </trkpt>
      <trkpt lat="45.75366" lon="4.6585">
        <ele>451</ele>
        <time>2012-04-07T12:18:14Z</time>
      </trkpt>
      <trkpt lat="45.75358" lon="4.65843">
        <ele>451</ele>
        <time>2012-04-07T12:18:17Z</time>
      </trkpt>
      <trkpt lat="45.75343" lon="4.6583">
        <ele>450</ele>
        <time>2012-04-07T12:18:23Z</time>
      </trkpt>
      <trkpt lat="45.75336" lon="4.65824">
        <ele>450</ele>
        <time>2012-04-07T12:18:26Z</time>
      </trkpt>
      <trkpt lat="45.75329" lon="4.65818">
        <ele>450</ele>
        <time>2012-04-07T12:18:29Z</time>
      </trkpt>
      <trkpt lat="45.75317" lon="4.65807">
        <ele>449</ele>
        <time>2012-04-07T12:18:35Z</time>
      </trkpt>
      <trkpt lat="45.75304" lon="4.65797">
        <ele>449</ele>
        <time>2012-04-07T12:18:43Z</time>
      </trkpt>
      <trkpt lat="45.75297" lon="4.65794">
        <ele>449</ele>
        <time>2012-04-07T12:18:47Z</time>
      </trkpt>
      <trkpt lat="45.75281" lon="4.65797">
        <ele>448</ele>
        <time>2012-04-07T12:18:57Z</time>
      </trkpt>
      <trkpt lat="45.75275" lon="4.65802">
        <ele>448</ele>
        <time>2012-04-07T12:19:02Z</time>
      </trkpt>
      <trkpt lat="45.75269" lon="4.65807">
        <ele>448</ele>
        <time>2012-04-07T12:19:06Z</time>
      </trkpt>
      <trkpt lat="45.75263" lon="4.65813">
        <ele>448</ele>
        <time>2012-04-07T12:19:11Z</time>
      </trkpt>
      <trkpt lat="45.75256" lon="4.65818">
        <ele>448</ele>
        <time>2012-04-07T12:19:17Z</time>
      </trkpt>
      <trkpt lat="45.75249" lon="4.65822">
        <ele>448</ele>
        <time>2012-04-07T12:19:23Z</time>
      </trkpt>
      <trkpt lat="45.75241" lon="4.65823">
        <ele>448</ele>
        <time>2012-04-07T12:19:31Z</time>
      </trkpt>
      <trkpt lat="45.75241" lon="4.65823">
        <ele>396.9</ele>
        <time>2012-04-07T12:19:42Z</time>
      </trkpt>
      <trkpt lat="45.75241" lon="4.65823">
        <ele>396.9</ele>
        <time>2012-04-07T12:20:09Z</time>
      </trkpt>
      <trkpt lat="45.75225" lon="4.65821">
        <ele>448</ele>
        <time>2012-04-07T12:20:15Z</time>
      </trkpt>
      <trkpt lat="45.75217" lon="4.65821">
        <ele>449</ele>
        <time>2012-04-07T12:20:20Z</time>
      </trkpt>
      <trkpt lat="45.7521" lon="4.65821">
        <ele>449</ele>
        <time>2012-04-07T12:20:25Z</time>
      </trkpt>
      <trkpt lat="45.75202" lon="4.65822">
        <ele>449</ele>
        <time>2012-04-07T12:20:31Z</time>
      </trkpt>
      <trkpt lat="45.75195" lon="4.65823">
        <ele>449</ele>
        <time>2012-04-07T12:20:37Z</time>
      </trkpt>
      <trkpt lat="45.75189" lon="4.6582">
        <ele>450</ele>
        <time>2012-04-07T12:20:43Z</time>
      </trkpt>
      <trkpt lat="45.75182" lon="4.65817">
        <ele>450</ele>
        <time>2012-04-07T12:20:48Z</time>
      </trkpt>
      <trkpt lat="45.75175" lon="4.65813">
        <ele>451</ele>
        <time>2012-04-07T12:20:54Z</time>
      </trkpt>
      <trkpt lat="45.75169" lon="4.65812">
        <ele>451</ele>
        <time>2012-04-07T12:21:00Z</time>
      </trkpt>
      <trkpt lat="45.75162" lon="4.65811">
        <ele>451</ele>
        <time>2012-04-07T12:21:06Z</time>
      </trkpt>
      <trkpt lat="45.75148" lon="4.6581">
        <ele>453</ele>
        <time>2012-04-07T12:21:17Z</time>
      </trkpt>
      <trkpt lat="45.75141" lon="4.6581">
        <ele>454</ele>
        <time>2012-04-07T12:21:23Z</time>
      </trkpt>
      <trkpt lat="45.75134" lon="4.6581">
        <ele>454</ele>
        <time>2012-04-07T12:21:29Z</time>
      </trkpt>
      <trkpt lat="45.75127" lon="4.65808">
        <ele>455</ele>
        <time>2012-04-07T12:21:35Z</time>
      </trkpt>
      <trkpt lat="45.7512" lon="4.65807">
        <ele>456</ele>
        <time>2012-04-07T12:21:41Z</time>
      </trkpt>
      <trkpt lat="45.75113" lon="4.65806">
        <ele>457</ele>
        <time>2012-04-07T12:21:47Z</time>
      </trkpt>
      <trkpt lat="45.75105" lon="4.65805">
        <ele>458</ele>
        <time>2012-04-07T12:21:53Z</time>
      </trkpt>
      <trkpt lat="45.75098" lon="4.65804">
        <ele>459</ele>
        <time>2012-04-07T12:21:59Z</time>
      </trkpt>
      <trkpt lat="45.75091" lon="4.65803">
        <ele>459</ele>
        <time>2012-04-07T12:22:05Z</time>
      </trkpt>
      <trkpt lat="45.75085" lon="4.65801">
        <ele>460</ele>
        <time>2012-04-07T12:22:11Z</time>
      </trkpt>
      <trkpt lat="45.75078" lon="4.65799">
        <ele>461</ele>
        <time>2012-04-07T12:22:17Z</time>
      </trkpt>
      <trkpt lat="45.75072" lon="4.65798">
        <ele>462</ele>
        <time>2012-04-07T12:22:23Z</time>
      </trkpt>
      <trkpt lat="45.75065" lon="4.65796">
        <ele>463</ele>
        <time>2012-04-07T12:22:29Z</time>
      </trkpt>
      <trkpt lat="45.75058" lon="4.65793">
        <ele>464</ele>
        <time>2012-04-07T12:22:35Z</time>
      </trkpt>
      <trkpt lat="45.75058" lon="4.65793">
        <ele>424.6</ele>
        <time>2012-04-07T12:22:47Z</time>
      </trkpt>
      <trkpt lat="45.75058" lon="4.65793">
        <ele>424.6</ele>
        <time>2012-04-07T12:23:05Z</time>
      </trkpt>
      <trkpt lat="45.7504" lon="4.65783">
        <ele>466</ele>
        <time>2012-04-07T12:23:12Z</time>
      </trkpt>
      <trkpt lat="45.75032" lon="4.65782">
        <ele>467</ele>
        <time>2012-04-07T12:23:18Z</time>
      </trkpt>
      <trkpt lat="45.75025" lon="4.6578">
        <ele>468</ele>
        <time>2012-04-07T12:23:24Z</time>
      </trkpt>
      <trkpt lat="45.75018" lon="4.65779">
        <ele>469</ele>
        <time>2012-04-07T12:23:30Z</time>
      </trkpt>
      <trkpt lat="45.75011" lon="4.65777">
        <ele>469</ele>
        <time>2012-04-07T12:23:36Z</time>
      </trkpt>
      <trkpt lat="45.75011" lon="4.65777">
        <ele>432</ele>
        <time>2012-04-07T12:23:47Z</time>
      </trkpt>
      <trkpt lat="45.75011" lon="4.65777">
        <ele>432</ele>
        <time>2012-04-07T12:23:48Z</time>
      </trkpt>
      <trkpt lat="45.74991" lon="4.65772">
        <ele>471</ele>
        <time>2012-04-07T12:23:54Z</time>
      </trkpt>
      <trkpt lat="45.74991" lon="4.65772">
        <ele>435.1</ele>
        <time>2012-04-07T12:24:06Z</time>
      </trkpt>
      <trkpt lat="45.74991" lon="4.65772">
        <ele>435.1</ele>
        <time>2012-04-07T12:24:14Z</time>
      </trkpt>
      <trkpt lat="45.74964" lon="4.65772">
        <ele>474</ele>
        <time>2012-04-07T12:24:21Z</time>
      </trkpt>
      <trkpt lat="45.74957" lon="4.65774">
        <ele>475</ele>
        <time>2012-04-07T12:24:27Z</time>
      </trkpt>
      <trkpt lat="45.7495" lon="4.65775">
        <ele>475</ele>
        <time>2012-04-07T12:24:33Z</time>
      </trkpt>
      <trkpt lat="45.74943" lon="4.65776">
        <ele>476</ele>
        <time>2012-04-07T12:24:40Z</time>
      </trkpt>
      <trkpt lat="45.74937" lon="4.65778">
        <ele>478</ele>
        <time>2012-04-07T12:24:49Z</time>
      </trkpt>
      <trkpt lat="45.74937" lon="4.65778">
        <ele>445.1</ele>
        <time>2012-04-07T12:25:00Z</time>
      </trkpt>
      <trkpt lat="45.74937" lon="4.65778">
        <ele>445.1</ele>
        <time>2012-04-07T12:25:11Z</time>
      </trkpt>
      <trkpt lat="45.74923" lon="4.65777">
        <ele>481</ele>
        <time>2012-04-07T12:25:17Z</time>
      </trkpt>
      <trkpt lat="45.74917" lon="4.65777">
        <ele>481</ele>
        <time>2012-04-07T12:25:23Z</time>
      </trkpt>
      <trkpt lat="45.7491" lon="4.65776">
        <ele>482</ele>
        <time>2012-04-07T12:25:29Z</time>
      </trkpt>
      <trkpt lat="45.7491" lon="4.65776">
        <ele>448.9</ele>
        <time>2012-04-07T12:25:40Z</time>
      </trkpt>
      <trkpt lat="45.7491" lon="4.65776">
        <ele>448.9</ele>
        <time>2012-04-07T12:25:41Z</time>
      </trkpt>
      <trkpt lat="45.74889" lon="4.65772">
        <ele>485</ele>
        <time>2012-04-07T12:25:47Z</time>
      </trkpt>
      <trkpt lat="45.74882" lon="4.65773">
        <ele>485</ele>
        <time>2012-04-07T12:25:53Z</time>
      </trkpt>
      <trkpt lat="45.74882" lon="4.65773">
        <ele>452.6</ele>
        <time>2012-04-07T12:26:04Z</time>
      </trkpt>
      <trkpt lat="45.74882" lon="4.65773">
        <ele>452.6</ele>
        <time>2012-04-07T12:26:37Z</time>
      </trkpt>
      <trkpt lat="45.74882" lon="4.65773">
        <ele>452.6</ele>
        <time>2012-04-07T12:26:48Z</time>
      </trkpt>
      <trkpt lat="45.74882" lon="4.65773">
        <ele>452.6</ele>
        <time>2012-04-07T12:26:54Z</time>
      </trkpt>
      <trkpt lat="45.74854" lon="4.65781">
        <ele>490</ele>
        <time>2012-04-07T12:26:59Z</time>
      </trkpt>
      <trkpt lat="45.74848" lon="4.65784">
        <ele>491</ele>
        <time>2012-04-07T12:27:04Z</time>
      </trkpt>
      <trkpt lat="45.74842" lon="4.65786">
        <ele>492</ele>
        <time>2012-04-07T12:27:09Z</time>
      </trkpt>
      <trkpt lat="45.74835" lon="4.65788">
        <ele>492</ele>
        <time>2012-04-07T12:27:14Z</time>
      </trkpt>
      <trkpt lat="45.74828" lon="4.65789">
        <ele>493</ele>
        <time>2012-04-07T12:27:19Z</time>
      </trkpt>
      <trkpt lat="45.74822" lon="4.65789">
        <ele>493</ele>
        <time>2012-04-07T12:27:24Z</time>
      </trkpt>
      <trkpt lat="45.74815" lon="4.65788">
        <ele>494</ele>
        <time>2012-04-07T12:27:30Z</time>
      </trkpt>
      <trkpt lat="45.74809" lon="4.65784">
        <ele>495</ele>
        <time>2012-04-07T12:27:35Z</time>
      </trkpt>
      <trkpt lat="45.74803" lon="4.65779">
        <ele>496</ele>
        <time>2012-04-07T12:27:40Z</time>
      </trkpt>
      <trkpt lat="45.74797" lon="4.65773">
        <ele>497</ele>
        <time>2012-04-07T12:27:46Z</time>
      </trkpt>
      <trkpt lat="45.74791" lon="4.65768">
        <ele>498</ele>
        <time>2012-04-07T12:27:52Z</time>
      </trkpt>
      <trkpt lat="45.74785" lon="4.65764">
        <ele>499</ele>
        <time>2012-04-07T12:27:58Z</time>
      </trkpt>
      <trkpt lat="45.74779" lon="4.65763">
        <ele>500</ele>
        <time>2012-04-07T12:28:04Z</time>
      </trkpt>
      <trkpt lat="45.74773" lon="4.65759">
        <ele>501</ele>
        <time>2012-04-07T12:28:10Z</time>
      </trkpt>
      <trkpt lat="45.74768" lon="4.65753">
        <ele>502</ele>
        <time>2012-04-07T12:28:16Z</time>
      </trkpt>
      <trkpt lat="45.74764" lon="4.65745">
        <ele>503</ele>
        <time>2012-04-07T12:28:22Z</time>
      </trkpt>
      <trkpt lat="45.74759" lon="4.65737">
        <ele>504</ele>
        <time>2012-04-07T12:28:28Z</time>
      </trkpt>
      <trkpt lat="45.74755" lon="4.65728">
        <ele>505</ele>
        <time>2012-04-07T12:28:34Z</time>
      </trkpt>
      <trkpt lat="45.74751" lon="4.65719">
        <ele>506</ele>
        <time>2012-04-07T12:28:39Z</time>
      </trkpt>
      <trkpt lat="45.74747" lon="4.65712">
        <ele>507</ele>
        <time>2012-04-07T12:28:44Z</time>
      </trkpt>
      <trkpt lat="45.74741" lon="4.65696">
        <ele>508</ele>
        <time>2012-04-07T12:28:54Z</time>
      </trkpt>
      <trkpt lat="45.74738" lon="4.65688">
        <ele>509</ele>
        <time>2012-04-07T12:28:59Z</time>
      </trkpt>
      <trkpt lat="45.74735" lon="4.65679">
        <ele>510</ele>
        <time>2012-04-07T12:29:05Z</time>
      </trkpt>
      <trkpt lat="45.74731" lon="4.6567">
        <ele>510</ele>
        <time>2012-04-07T12:29:10Z</time>
      </trkpt>
      <trkpt lat="45.74727" lon="4.65661">
        <ele>511</ele>
        <time>2012-04-07T12:29:15Z</time>
      </trkpt>
      <trkpt lat="45.74723" lon="4.65653">
        <ele>511</ele>
        <time>2012-04-07T12:29:20Z</time>
      </trkpt>
      <trkpt lat="45.74719" lon="4.65645">
        <ele>512</ele>
        <time>2012-04-07T12:29:25Z</time>
      </trkpt>
      <trkpt lat="45.74716" lon="4.65637">
        <ele>512</ele>
        <time>2012-04-07T12:29:29Z</time>
      </trkpt>
      <trkpt lat="45.74713" lon="4.65628">
        <ele>513</ele>
        <time>2012-04-07T12:29:33Z</time>
      </trkpt>
      <trkpt lat="45.74704" lon="4.65612">
        <ele>514</ele>
        <time>2012-04-07T12:29:41Z</time>
      </trkpt>
      <trkpt lat="45.74701" lon="4.65603">
        <ele>515</ele>
        <time>2012-04-07T12:29:45Z</time>
      </trkpt>
      <trkpt lat="45.74697" lon="4.65595">
        <ele>515</ele>
        <time>2012-04-07T12:29:49Z</time>
      </trkpt>
      <trkpt lat="45.74694" lon="4.65587">
        <ele>516</ele>
        <time>2012-04-07T12:29:53Z</time>
      </trkpt>
      <trkpt lat="45.7469" lon="4.6558">
        <ele>516</ele>
        <time>2012-04-07T12:29:57Z</time>
      </trkpt>
      <trkpt lat="45.74685" lon="4.65572">
        <ele>517</ele>
        <time>2012-04-07T12:30:02Z</time>
      </trkpt>
      <trkpt lat="45.7468" lon="4.65564">
        <ele>517</ele>
        <time>2012-04-07T12:30:07Z</time>
      </trkpt>
      <trkpt lat="45.74675" lon="4.65556">
        <ele>518</ele>
        <time>2012-04-07T12:30:12Z</time>
      </trkpt>
      <trkpt lat="45.7467" lon="4.65549">
        <ele>518</ele>
        <time>2012-04-07T12:30:17Z</time>
      </trkpt>
      <trkpt lat="45.74666" lon="4.65542">
        <ele>519</ele>
        <time>2012-04-07T12:30:22Z</time>
      </trkpt>
      <trkpt lat="45.74661" lon="4.65535">
        <ele>519</ele>
        <time>2012-04-07T12:30:27Z</time>
      </trkpt>
      <trkpt lat="45.74656" lon="4.65528">
        <ele>520</ele>
        <time>2012-04-07T12:30:32Z</time>
      </trkpt>
      <trkpt lat="45.74651" lon="4.65519">
        <ele>520</ele>
        <time>2012-04-07T12:30:37Z</time>
      </trkpt>
      <trkpt lat="45.74647" lon="4.65512">
        <ele>521</ele>
        <time>2012-04-07T12:30:41Z</time>
      </trkpt>
      <trkpt lat="45.74643" lon="4.65504">
        <ele>521</ele>
        <time>2012-04-07T12:30:45Z</time>
      </trkpt>
      <trkpt lat="45.74637" lon="4.65487">
        <ele>522</ele>
        <time>2012-04-07T12:30:53Z</time>
      </trkpt>
      <trkpt lat="45.74631" lon="4.65469">
        <ele>523</ele>
        <time>2012-04-07T12:31:02Z</time>
      </trkpt>
      <trkpt lat="45.74627" lon="4.65459">
        <ele>524</ele>
        <time>2012-04-07T12:31:07Z</time>
      </trkpt>
      <trkpt lat="45.74625" lon="4.65448">
        <ele>525</ele>
        <time>2012-04-07T12:31:12Z</time>
      </trkpt>
      <trkpt lat="45.74623" lon="4.65439">
        <ele>526</ele>
        <time>2012-04-07T12:31:17Z</time>
      </trkpt>
      <trkpt lat="45.74622" lon="4.6543">
        <ele>526</ele>
        <time>2012-04-07T12:31:22Z</time>
      </trkpt>
      <trkpt lat="45.74618" lon="4.65409">
        <ele>528</ele>
        <time>2012-04-07T12:31:32Z</time>
      </trkpt>
      <trkpt lat="45.74612" lon="4.65388">
        <ele>529</ele>
        <time>2012-04-07T12:31:42Z</time>
      </trkpt>
      <trkpt lat="45.74611" lon="4.6538">
        <ele>530</ele>
        <time>2012-04-07T12:31:46Z</time>
      </trkpt>
      <trkpt lat="45.74607" lon="4.65359">
        <ele>531</ele>
        <time>2012-04-07T12:31:56Z</time>
      </trkpt>
      <trkpt lat="45.74605" lon="4.65349">
        <ele>532</ele>
        <time>2012-04-07T12:32:01Z</time>
      </trkpt>
      <trkpt lat="45.74601" lon="4.65329">
        <ele>533</ele>
        <time>2012-04-07T12:32:11Z</time>
      </trkpt>
      <trkpt lat="45.74601" lon="4.65319">
        <ele>533</ele>
        <time>2012-04-07T12:32:16Z</time>
      </trkpt>
      <trkpt lat="45.74602" lon="4.65308">
        <ele>534</ele>
        <time>2012-04-07T12:32:21Z</time>
      </trkpt>
      <trkpt lat="45.74602" lon="4.65298">
        <ele>534</ele>
        <time>2012-04-07T12:32:26Z</time>
      </trkpt>
      <trkpt lat="45.74603" lon="4.65287">
        <ele>534</ele>
        <time>2012-04-07T12:32:31Z</time>
      </trkpt>
      <trkpt lat="45.74604" lon="4.65277">
        <ele>535</ele>
        <time>2012-04-07T12:32:36Z</time>
      </trkpt>
      <trkpt lat="45.74606" lon="4.65267">
        <ele>535</ele>
        <time>2012-04-07T12:32:41Z</time>
      </trkpt>
      <trkpt lat="45.74608" lon="4.65257">
        <ele>536</ele>
        <time>2012-04-07T12:32:46Z</time>
      </trkpt>
      <trkpt lat="45.74609" lon="4.65246">
        <ele>537</ele>
        <time>2012-04-07T12:32:51Z</time>
      </trkpt>
      <trkpt lat="45.74611" lon="4.65236">
        <ele>537</ele>
        <time>2012-04-07T12:32:56Z</time>
      </trkpt>
      <trkpt lat="45.74612" lon="4.65227">
        <ele>538</ele>
        <time>2012-04-07T12:33:01Z</time>
      </trkpt>
      <trkpt lat="45.74614" lon="4.65217">
        <ele>538</ele>
        <time>2012-04-07T12:33:07Z</time>
      </trkpt>
      <trkpt lat="45.74615" lon="4.65208">
        <ele>539</ele>
        <time>2012-04-07T12:33:13Z</time>
      </trkpt>
      <trkpt lat="45.74615" lon="4.65198">
        <ele>540</ele>
        <time>2012-04-07T12:33:17Z</time>
      </trkpt>
      <trkpt lat="45.74616" lon="4.65188">
        <ele>540</ele>
        <time>2012-04-07T12:33:22Z</time>
      </trkpt>
      <trkpt lat="45.74617" lon="4.65178">
        <ele>541</ele>
        <time>2012-04-07T12:33:27Z</time>
      </trkpt>
      <trkpt lat="45.74617" lon="4.65167">
        <ele>541</ele>
        <time>2012-04-07T12:33:32Z</time>
      </trkpt>
      <trkpt lat="45.74619" lon="4.65158">
        <ele>541</ele>
        <time>2012-04-07T12:33:37Z</time>
      </trkpt>
      <trkpt lat="45.74622" lon="4.65149">
        <ele>542</ele>
        <time>2012-04-07T12:33:43Z</time>
      </trkpt>
      <trkpt lat="45.74622" lon="4.65149">
        <ele>504.4</ele>
        <time>2012-04-07T12:33:54Z</time>
      </trkpt>
      <trkpt lat="45.74622" lon="4.65149">
        <ele>504.4</ele>
        <time>2012-04-07T12:33:57Z</time>
      </trkpt>
      <trkpt lat="45.74627" lon="4.65122">
        <ele>544</ele>
        <time>2012-04-07T12:34:02Z</time>
      </trkpt>
      <trkpt lat="45.74626" lon="4.65111">
        <ele>545</ele>
        <time>2012-04-07T12:34:07Z</time>
      </trkpt>
      <trkpt lat="45.74627" lon="4.65091">
        <ele>547</ele>
        <time>2012-04-07T12:34:17Z</time>
      </trkpt>
      <trkpt lat="45.74627" lon="4.65081">
        <ele>548</ele>
        <time>2012-04-07T12:34:22Z</time>
      </trkpt>
      <trkpt lat="45.74628" lon="4.65071">
        <ele>548</ele>
        <time>2012-04-07T12:34:27Z</time>
      </trkpt>
      <trkpt lat="45.7463" lon="4.65061">
        <ele>549</ele>
        <time>2012-04-07T12:34:32Z</time>
      </trkpt>
      <trkpt lat="45.74632" lon="4.65052">
        <ele>550</ele>
        <time>2012-04-07T12:34:37Z</time>
      </trkpt>
      <trkpt lat="45.74633" lon="4.65042">
        <ele>550</ele>
        <time>2012-04-07T12:34:42Z</time>
      </trkpt>
      <trkpt lat="45.74635" lon="4.65022">
        <ele>551</ele>
        <time>2012-04-07T12:34:52Z</time>
      </trkpt>
      <trkpt lat="45.74636" lon="4.65012">
        <ele>552</ele>
        <time>2012-04-07T12:34:57Z</time>
      </trkpt>
      <trkpt lat="45.74636" lon="4.65001">
        <ele>553</ele>
        <time>2012-04-07T12:35:02Z</time>
      </trkpt>
      <trkpt lat="45.74637" lon="4.64991">
        <ele>553</ele>
        <time>2012-04-07T12:35:07Z</time>
      </trkpt>
      <trkpt lat="45.74639" lon="4.64981">
        <ele>554</ele>
        <time>2012-04-07T12:35:12Z</time>
      </trkpt>
      <trkpt lat="45.74641" lon="4.64973">
        <ele>554</ele>
        <time>2012-04-07T12:35:16Z</time>
      </trkpt>
      <trkpt lat="45.74643" lon="4.64964">
        <ele>555</ele>
        <time>2012-04-07T12:35:20Z</time>
      </trkpt>
      <trkpt lat="45.74645" lon="4.64955">
        <ele>556</ele>
        <time>2012-04-07T12:35:24Z</time>
      </trkpt>
      <trkpt lat="45.74648" lon="4.64947">
        <ele>556</ele>
        <time>2012-04-07T12:35:28Z</time>
      </trkpt>
      <trkpt lat="45.74651" lon="4.64937">
        <ele>557</ele>
        <time>2012-04-07T12:35:33Z</time>
      </trkpt>
      <trkpt lat="45.74655" lon="4.64927">
        <ele>558</ele>
        <time>2012-04-07T12:35:38Z</time>
      </trkpt>
      <trkpt lat="45.74658" lon="4.64917">
        <ele>558</ele>
        <time>2012-04-07T12:35:43Z</time>
      </trkpt>
      <trkpt lat="45.74661" lon="4.64908">
        <ele>559</ele>
        <time>2012-04-07T12:35:48Z</time>
      </trkpt>
      <trkpt lat="45.74664" lon="4.649">
        <ele>560</ele>
        <time>2012-04-07T12:35:53Z</time>
      </trkpt>
      <trkpt lat="45.74667" lon="4.6489">
        <ele>560</ele>
        <time>2012-04-07T12:35:58Z</time>
      </trkpt>
      <trkpt lat="45.7467" lon="4.64881">
        <ele>561</ele>
        <time>2012-04-07T12:36:03Z</time>
      </trkpt>
      <trkpt lat="45.74672" lon="4.64873">
        <ele>562</ele>
        <time>2012-04-07T12:36:08Z</time>
      </trkpt>
      <trkpt lat="45.74677" lon="4.64855">
        <ele>563</ele>
        <time>2012-04-07T12:36:18Z</time>
      </trkpt>
      <trkpt lat="45.74679" lon="4.64835">
        <ele>564</ele>
        <time>2012-04-07T12:36:28Z</time>
      </trkpt>
      <trkpt lat="45.74678" lon="4.64825">
        <ele>565</ele>
        <time>2012-04-07T12:36:33Z</time>
      </trkpt>
      <trkpt lat="45.74674" lon="4.64818">
        <ele>566</ele>
        <time>2012-04-07T12:36:37Z</time>
      </trkpt>
      <trkpt lat="45.74669" lon="4.64811">
        <ele>567</ele>
        <time>2012-04-07T12:36:42Z</time>
      </trkpt>
      <trkpt lat="45.74664" lon="4.64805">
        <ele>567</ele>
        <time>2012-04-07T12:36:47Z</time>
      </trkpt>
      <trkpt lat="45.74659" lon="4.648">
        <ele>568</ele>
        <time>2012-04-07T12:36:52Z</time>
      </trkpt>
      <trkpt lat="45.74653" lon="4.64794">
        <ele>569</ele>
        <time>2012-04-07T12:36:57Z</time>
      </trkpt>
      <trkpt lat="45.74647" lon="4.64788">
        <ele>570</ele>
        <time>2012-04-07T12:37:02Z</time>
      </trkpt>
      <trkpt lat="45.74642" lon="4.64783">
        <ele>570</ele>
        <time>2012-04-07T12:37:07Z</time>
      </trkpt>
      <trkpt lat="45.74636" lon="4.64777">
        <ele>571</ele>
        <time>2012-04-07T12:37:12Z</time>
      </trkpt>
      <trkpt lat="45.74626" lon="4.64765">
        <ele>572</ele>
        <time>2012-04-07T12:37:22Z</time>
      </trkpt>
      <trkpt lat="45.74622" lon="4.64759">
        <ele>573</ele>
        <time>2012-04-07T12:37:27Z</time>
      </trkpt>
      <trkpt lat="45.74616" lon="4.64753">
        <ele>574</ele>
        <time>2012-04-07T12:37:33Z</time>
      </trkpt>
      <trkpt lat="45.74611" lon="4.64746">
        <ele>575</ele>
        <time>2012-04-07T12:37:40Z</time>
      </trkpt>
      <trkpt lat="45.74605" lon="4.64741">
        <ele>575</ele>
        <time>2012-04-07T12:37:46Z</time>
      </trkpt>
      <trkpt lat="45.746" lon="4.64736">
        <ele>576</ele>
        <time>2012-04-07T12:37:52Z</time>
      </trkpt>
      <trkpt lat="45.746" lon="4.64736">
        <ele>540.4</ele>
        <time>2012-04-07T12:38:03Z</time>
      </trkpt>
      <trkpt lat="45.746" lon="4.64736">
        <ele>540.4</ele>
        <time>2012-04-07T12:38:05Z</time>
      </trkpt>
      <trkpt lat="45.74576" lon="4.64716">
        <ele>578</ele>
        <time>2012-04-07T12:38:16Z</time>
      </trkpt>
      <trkpt lat="45.7457" lon="4.6471">
        <ele>578</ele>
        <time>2012-04-07T12:38:21Z</time>
      </trkpt>
      <trkpt lat="45.74564" lon="4.64705">
        <ele>579</ele>
        <time>2012-04-07T12:38:26Z</time>
      </trkpt>
      <trkpt lat="45.7456" lon="4.64699">
        <ele>580</ele>
        <time>2012-04-07T12:38:31Z</time>
      </trkpt>
      <trkpt lat="45.74555" lon="4.64692">
        <ele>581</ele>
        <time>2012-04-07T12:38:36Z</time>
      </trkpt>
      <trkpt lat="45.74552" lon="4.64683">
        <ele>582</ele>
        <time>2012-04-07T12:38:42Z</time>
      </trkpt>
      <trkpt lat="45.74552" lon="4.64683">
        <ele>547.2</ele>
        <time>2012-04-07T12:38:53Z</time>
      </trkpt>
      <trkpt lat="45.74552" lon="4.64683">
        <ele>547.2</ele>
        <time>2012-04-07T12:39:00Z</time>
      </trkpt>
      <trkpt lat="45.74539" lon="4.64644">
        <ele>585</ele>
        <time>2012-04-07T12:39:06Z</time>
      </trkpt>
      <trkpt lat="45.74536" lon="4.64635">
        <ele>585</ele>
        <time>2012-04-07T12:39:12Z</time>
      </trkpt>
      <trkpt lat="45.74532" lon="4.64627">
        <ele>586</ele>
        <time>2012-04-07T12:39:17Z</time>
      </trkpt>
      <trkpt lat="45.74529" lon="4.64619">
        <ele>586</ele>
        <time>2012-04-07T12:39:23Z</time>
      </trkpt>
      <trkpt lat="45.74529" lon="4.64619">
        <ele>552.2</ele>
        <time>2012-04-07T12:39:34Z</time>
      </trkpt>
      <trkpt lat="45.74529" lon="4.64619">
        <ele>552.2</ele>
        <time>2012-04-07T12:39:35Z</time>
      </trkpt>
      <trkpt lat="45.74529" lon="4.64619">
        <ele>552.2</ele>
        <time>2012-04-07T12:39:46Z</time>
      </trkpt>
      <trkpt lat="45.74529" lon="4.64619">
        <ele>552.2</ele>
        <time>2012-04-07T12:39:54Z</time>
      </trkpt>
      <trkpt lat="45.7451" lon="4.64566">
        <ele>588</ele>
        <time>2012-04-07T12:40:00Z</time>
      </trkpt>
      <trkpt lat="45.74509" lon="4.64557">
        <ele>589</ele>
        <time>2012-04-07T12:40:05Z</time>
      </trkpt>
      <trkpt lat="45.74509" lon="4.64557">
        <ele>555</ele>
        <time>2012-04-07T12:40:17Z</time>
      </trkpt>
      <trkpt lat="45.74509" lon="4.64557">
        <ele>555</ele>
        <time>2012-04-07T12:40:20Z</time>
      </trkpt>
      <trkpt lat="45.74503" lon="4.6452">
        <ele>590</ele>
        <time>2012-04-07T12:40:25Z</time>
      </trkpt>
      <trkpt lat="45.74502" lon="4.6451">
        <ele>591</ele>
        <time>2012-04-07T12:40:30Z</time>
      </trkpt>
      <trkpt lat="45.74503" lon="4.64498">
        <ele>591</ele>
        <time>2012-04-07T12:40:35Z</time>
      </trkpt>
      <trkpt lat="45.74503" lon="4.64489">
        <ele>592</ele>
        <time>2012-04-07T12:40:39Z</time>
      </trkpt>
      <trkpt lat="45.74503" lon="4.64478">
        <ele>592</ele>
        <time>2012-04-07T12:40:44Z</time>
      </trkpt>
      <trkpt lat="45.74502" lon="4.64468">
        <ele>593</ele>
        <time>2012-04-07T12:40:49Z</time>
      </trkpt>
      <trkpt lat="45.74502" lon="4.64468">
        <ele>564.1</ele>
        <time>2012-04-07T12:41:00Z</time>
      </trkpt>
      <trkpt lat="45.74502" lon="4.64468">
        <ele>564.1</ele>
        <time>2012-04-07T12:41:05Z</time>
      </trkpt>
      <trkpt lat="45.74498" lon="4.64429">
        <ele>597</ele>
        <time>2012-04-07T12:41:10Z</time>
      </trkpt>
      <trkpt lat="45.74498" lon="4.6442">
        <ele>598</ele>
        <time>2012-04-07T12:41:16Z</time>
      </trkpt>
      <trkpt lat="45.74497" lon="4.6441">
        <ele>600</ele>
        <time>2012-04-07T12:41:22Z</time>
      </trkpt>
      <trkpt lat="45.74497" lon="4.64401">
        <ele>601</ele>
        <time>2012-04-07T12:41:27Z</time>
      </trkpt>
      <trkpt lat="45.74497" lon="4.64392">
        <ele>602</ele>
        <time>2012-04-07T12:41:32Z</time>
      </trkpt>
      <trkpt lat="45.74501" lon="4.64383">
        <ele>603</ele>
        <time>2012-04-07T12:41:38Z</time>
      </trkpt>
      <trkpt lat="45.74507" lon="4.64383">
        <ele>604</ele>
        <time>2012-04-07T12:41:43Z</time>
      </trkpt>
      <trkpt lat="45.74513" lon="4.64388">
        <ele>606</ele>
        <time>2012-04-07T12:41:48Z</time>
      </trkpt>
      <trkpt lat="45.74518" lon="4.64396">
        <ele>607</ele>
        <time>2012-04-07T12:41:53Z</time>
      </trkpt>
      <trkpt lat="45.74522" lon="4.64403">
        <ele>608</ele>
        <time>2012-04-07T12:41:58Z</time>
      </trkpt>
      <trkpt lat="45.74527" lon="4.6441">
        <ele>609</ele>
        <time>2012-04-07T12:42:03Z</time>
      </trkpt>
      <trkpt lat="45.74531" lon="4.64418">
        <ele>610</ele>
        <time>2012-04-07T12:42:08Z</time>
      </trkpt>
      <trkpt lat="45.74534" lon="4.64426">
        <ele>611</ele>
        <time>2012-04-07T12:42:13Z</time>
      </trkpt>
      <trkpt lat="45.74537" lon="4.64435">
        <ele>613</ele>
        <time>2012-04-07T12:42:19Z</time>
      </trkpt>
      <trkpt lat="45.74546" lon="4.64451">
        <ele>615</ele>
        <time>2012-04-07T12:42:30Z</time>
      </trkpt>
      <trkpt lat="45.7455" lon="4.64457">
        <ele>616</ele>
        <time>2012-04-07T12:42:35Z</time>
      </trkpt>
      <trkpt lat="45.74556" lon="4.64463">
        <ele>617</ele>
        <time>2012-04-07T12:42:40Z</time>
      </trkpt>
      <trkpt lat="45.74561" lon="4.64468">
        <ele>618</ele>
        <time>2012-04-07T12:42:45Z</time>
      </trkpt>
      <trkpt lat="45.74561" lon="4.64468">
        <ele>579.2</ele>
        <time>2012-04-07T12:42:57Z</time>
      </trkpt>
      <trkpt lat="45.74561" lon="4.64468">
        <ele>579.2</ele>
        <time>2012-04-07T12:42:58Z</time>
      </trkpt>
      <trkpt lat="45.74587" lon="4.64484">
        <ele>622</ele>
        <time>2012-04-07T12:43:09Z</time>
      </trkpt>
      <trkpt lat="45.74594" lon="4.64488">
        <ele>623</ele>
        <time>2012-04-07T12:43:15Z</time>
      </trkpt>
      <trkpt lat="45.74599" lon="4.64493">
        <ele>624</ele>
        <time>2012-04-07T12:43:21Z</time>
      </trkpt>
      <trkpt lat="45.74599" lon="4.64493">
        <ele>581.7</ele>
        <time>2012-04-07T12:43:33Z</time>
      </trkpt>
      <trkpt lat="45.74599" lon="4.64493">
        <ele>581.7</ele>
        <time>2012-04-07T12:48:48Z</time>
      </trkpt>
      <trkpt lat="45.74614" lon="4.64487">
        <ele>631</ele>
        <time>2012-04-07T12:48:54Z</time>
      </trkpt>
      <trkpt lat="45.74621" lon="4.64485">
        <ele>631</ele>
        <time>2012-04-07T12:49:00Z</time>
      </trkpt>
      <trkpt lat="45.74628" lon="4.64484">
        <ele>632</ele>
        <time>2012-04-07T12:49:06Z</time>
      </trkpt>
      <trkpt lat="45.74635" lon="4.64483">
        <ele>632</ele>
        <time>2012-04-07T12:49:12Z</time>
      </trkpt>
      <trkpt lat="45.74642" lon="4.64482">
        <ele>633</ele>
        <time>2012-04-07T12:49:18Z</time>
      </trkpt>
      <trkpt lat="45.74649" lon="4.6448">
        <ele>633</ele>
        <time>2012-04-07T12:49:24Z</time>
      </trkpt>
      <trkpt lat="45.74656" lon="4.64479">
        <ele>633</ele>
        <time>2012-04-07T12:49:30Z</time>
      </trkpt>
      <trkpt lat="45.74664" lon="4.64476">
        <ele>634</ele>
        <time>2012-04-07T12:49:35Z</time>
      </trkpt>
      <trkpt lat="45.7467" lon="4.64472">
        <ele>634</ele>
        <time>2012-04-07T12:49:40Z</time>
      </trkpt>
      <trkpt lat="45.74677" lon="4.64468">
        <ele>634</ele>
        <time>2012-04-07T12:49:45Z</time>
      </trkpt>
      <trkpt lat="45.74682" lon="4.64463">
        <ele>634</ele>
        <time>2012-04-07T12:49:50Z</time>
      </trkpt>
      <trkpt lat="45.74688" lon="4.64456">
        <ele>634</ele>
        <time>2012-04-07T12:49:55Z</time>
      </trkpt>
      <trkpt lat="45.74693" lon="4.6445">
        <ele>635</ele>
        <time>2012-04-07T12:49:59Z</time>
      </trkpt>
      <trkpt lat="45.74698" lon="4.64443">
        <ele>635</ele>
        <time>2012-04-07T12:50:04Z</time>
      </trkpt>
      <trkpt lat="45.74703" lon="4.64435">
        <ele>635</ele>
        <time>2012-04-07T12:50:09Z</time>
      </trkpt>
      <trkpt lat="45.74708" lon="4.64427">
        <ele>636</ele>
        <time>2012-04-07T12:50:14Z</time>
      </trkpt>
      <trkpt lat="45.74713" lon="4.64422">
        <ele>636</ele>
        <time>2012-04-07T12:50:18Z</time>
      </trkpt>
      <trkpt lat="45.74718" lon="4.64414">
        <ele>636</ele>
        <time>2012-04-07T12:50:23Z</time>
      </trkpt>
      <trkpt lat="45.74723" lon="4.64407">
        <ele>637</ele>
        <time>2012-04-07T12:50:28Z</time>
      </trkpt>
      <trkpt lat="45.74728" lon="4.644">
        <ele>637</ele>
        <time>2012-04-07T12:50:33Z</time>
      </trkpt>
      <trkpt lat="45.74738" lon="4.64388">
        <ele>639</ele>
        <time>2012-04-07T12:50:43Z</time>
      </trkpt>
      <trkpt lat="45.74744" lon="4.64382">
        <ele>639</ele>
        <time>2012-04-07T12:50:48Z</time>
      </trkpt>
      <trkpt lat="45.74749" lon="4.64376">
        <ele>640</ele>
        <time>2012-04-07T12:50:53Z</time>
      </trkpt>
      <trkpt lat="45.74758" lon="4.64361">
        <ele>642</ele>
        <time>2012-04-07T12:51:04Z</time>
      </trkpt>
      <trkpt lat="45.74764" lon="4.64354">
        <ele>643</ele>
        <time>2012-04-07T12:51:10Z</time>
      </trkpt>
      <trkpt lat="45.74769" lon="4.64346">
        <ele>644</ele>
        <time>2012-04-07T12:51:16Z</time>
      </trkpt>
      <trkpt lat="45.74775" lon="4.64341">
        <ele>645</ele>
        <time>2012-04-07T12:51:22Z</time>
      </trkpt>
      <trkpt lat="45.7478" lon="4.64334">
        <ele>646</ele>
        <time>2012-04-07T12:51:28Z</time>
      </trkpt>
      <trkpt lat="45.74786" lon="4.64328">
        <ele>647</ele>
        <time>2012-04-07T12:51:34Z</time>
      </trkpt>
      <trkpt lat="45.74791" lon="4.64322">
        <ele>647</ele>
        <time>2012-04-07T12:51:39Z</time>
      </trkpt>
      <trkpt lat="45.74795" lon="4.64315">
        <ele>648</ele>
        <time>2012-04-07T12:51:44Z</time>
      </trkpt>
      <trkpt lat="45.74801" lon="4.64308">
        <ele>649</ele>
        <time>2012-04-07T12:51:54Z</time>
      </trkpt>
      <trkpt lat="45.74806" lon="4.643">
        <ele>649</ele>
        <time>2012-04-07T12:52:01Z</time>
      </trkpt>
      <trkpt lat="45.74811" lon="4.64293">
        <ele>650</ele>
        <time>2012-04-07T12:52:05Z</time>
      </trkpt>
      <trkpt lat="45.74816" lon="4.64287">
        <ele>650</ele>
        <time>2012-04-07T12:52:10Z</time>
      </trkpt>
      <trkpt lat="45.74821" lon="4.64278">
        <ele>651</ele>
        <time>2012-04-07T12:52:16Z</time>
      </trkpt>
      <trkpt lat="45.74825" lon="4.6427">
        <ele>651</ele>
        <time>2012-04-07T12:52:22Z</time>
      </trkpt>
      <trkpt lat="45.7483" lon="4.64263">
        <ele>652</ele>
        <time>2012-04-07T12:52:27Z</time>
      </trkpt>
      <trkpt lat="45.74839" lon="4.64249">
        <ele>652</ele>
        <time>2012-04-07T12:52:37Z</time>
      </trkpt>
      <trkpt lat="45.74849" lon="4.64238">
        <ele>653</ele>
        <time>2012-04-07T12:52:47Z</time>
      </trkpt>
      <trkpt lat="45.74849" lon="4.64238">
        <ele>612.6</ele>
        <time>2012-04-07T12:52:58Z</time>
      </trkpt>
      <trkpt lat="45.74849" lon="4.64238">
        <ele>612.6</ele>
        <time>2012-04-07T12:53:02Z</time>
      </trkpt>
      <trkpt lat="45.74868" lon="4.6421">
        <ele>655</ele>
        <time>2012-04-07T12:53:07Z</time>
      </trkpt>
      <trkpt lat="45.74868" lon="4.6421">
        <ele>614.8</ele>
        <time>2012-04-07T12:53:18Z</time>
      </trkpt>
      <trkpt lat="45.74868" lon="4.6421">
        <ele>614.8</ele>
        <time>2012-04-07T12:53:22Z</time>
      </trkpt>
      <trkpt lat="45.7489" lon="4.64181">
        <ele>656</ele>
        <time>2012-04-07T12:53:26Z</time>
      </trkpt>
      <trkpt lat="45.74895" lon="4.64174">
        <ele>657</ele>
        <time>2012-04-07T12:53:30Z</time>
      </trkpt>
      <trkpt lat="45.74904" lon="4.64159">
        <ele>657</ele>
        <time>2012-04-07T12:53:40Z</time>
      </trkpt>
      <trkpt lat="45.7491" lon="4.64141">
        <ele>658</ele>
        <time>2012-04-07T12:53:50Z</time>
      </trkpt>
      <trkpt lat="45.74915" lon="4.64133">
        <ele>659</ele>
        <time>2012-04-07T12:53:55Z</time>
      </trkpt>
      <trkpt lat="45.7492" lon="4.64125">
        <ele>660</ele>
        <time>2012-04-07T12:54:00Z</time>
      </trkpt>
      <trkpt lat="45.74929" lon="4.64109">
        <ele>661</ele>
        <time>2012-04-07T12:54:09Z</time>
      </trkpt>
      <trkpt lat="45.74934" lon="4.64103">
        <ele>661</ele>
        <time>2012-04-07T12:54:13Z</time>
      </trkpt>
      <trkpt lat="45.74939" lon="4.64095">
        <ele>662</ele>
        <time>2012-04-07T12:54:18Z</time>
      </trkpt>
      <trkpt lat="45.74944" lon="4.64087">
        <ele>662</ele>
        <time>2012-04-07T12:54:23Z</time>
      </trkpt>
      <trkpt lat="45.74949" lon="4.64078">
        <ele>663</ele>
        <time>2012-04-07T12:54:28Z</time>
      </trkpt>
      <trkpt lat="45.74953" lon="4.6407">
        <ele>664</ele>
        <time>2012-04-07T12:54:33Z</time>
      </trkpt>
      <trkpt lat="45.74957" lon="4.64062">
        <ele>664</ele>
        <time>2012-04-07T12:54:38Z</time>
      </trkpt>
      <trkpt lat="45.74962" lon="4.64054">
        <ele>665</ele>
        <time>2012-04-07T12:54:43Z</time>
      </trkpt>
      <trkpt lat="45.74962" lon="4.64054">
        <ele>625.5</ele>
        <time>2012-04-07T12:54:54Z</time>
      </trkpt>
      <trkpt lat="45.74962" lon="4.64054">
        <ele>625.5</ele>
        <time>2012-04-07T12:54:57Z</time>
      </trkpt>
      <trkpt lat="45.74975" lon="4.64018">
        <ele>667</ele>
        <time>2012-04-07T12:55:02Z</time>
      </trkpt>
      <trkpt lat="45.74978" lon="4.6401">
        <ele>667</ele>
        <time>2012-04-07T12:55:07Z</time>
      </trkpt>
      <trkpt lat="45.74982" lon="4.64002">
        <ele>668</ele>
        <time>2012-04-07T12:55:12Z</time>
      </trkpt>
      <trkpt lat="45.74986" lon="4.63994">
        <ele>668</ele>
        <time>2012-04-07T12:55:17Z</time>
      </trkpt>
      <trkpt lat="45.74992" lon="4.63988">
        <ele>669</ele>
        <time>2012-04-07T12:55:23Z</time>
      </trkpt>
      <trkpt lat="45.74992" lon="4.63988">
        <ele>632.2</ele>
        <time>2012-04-07T12:55:34Z</time>
      </trkpt>
      <trkpt lat="45.74992" lon="4.63988">
        <ele>632.2</ele>
        <time>2012-04-07T12:55:35Z</time>
      </trkpt>
      <trkpt lat="45.74992" lon="4.63988">
        <ele>632.2</ele>
        <time>2012-04-07T12:55:46Z</time>
      </trkpt>
      <trkpt lat="45.74992" lon="4.63988">
        <ele>632.2</ele>
        <time>2012-04-07T12:55:54Z</time>
      </trkpt>
      <trkpt lat="45.75025" lon="4.63955">
        <ele>673</ele>
        <time>2012-04-07T12:56:00Z</time>
      </trkpt>
      <trkpt lat="45.75025" lon="4.63955">
        <ele>638</ele>
        <time>2012-04-07T12:56:11Z</time>
      </trkpt>
      <trkpt lat="45.75025" lon="4.63955">
        <ele>638</ele>
        <time>2012-04-07T12:56:20Z</time>
      </trkpt>
      <trkpt lat="45.75048" lon="4.63934">
        <ele>676</ele>
        <time>2012-04-07T12:56:26Z</time>
      </trkpt>
      <trkpt lat="45.75054" lon="4.6393">
        <ele>676</ele>
        <time>2012-04-07T12:56:30Z</time>
      </trkpt>
      <trkpt lat="45.75061" lon="4.63925">
        <ele>677</ele>
        <time>2012-04-07T12:56:37Z</time>
      </trkpt>
      <trkpt lat="45.75073" lon="4.63918">
        <ele>678</ele>
        <time>2012-04-07T12:56:49Z</time>
      </trkpt>
      <trkpt lat="45.75084" lon="4.63909">
        <ele>678</ele>
        <time>2012-04-07T12:56:59Z</time>
      </trkpt>
      <trkpt lat="45.75091" lon="4.63904">
        <ele>679</ele>
        <time>2012-04-07T12:57:05Z</time>
      </trkpt>
      <trkpt lat="45.75091" lon="4.63904">
        <ele>649.3</ele>
        <time>2012-04-07T12:57:17Z</time>
      </trkpt>
      <trkpt lat="45.75091" lon="4.63904">
        <ele>649.3</ele>
        <time>2012-04-07T12:57:24Z</time>
      </trkpt>
      <trkpt lat="45.75115" lon="4.63884">
        <ele>681</ele>
        <time>2012-04-07T12:57:30Z</time>
      </trkpt>
      <trkpt lat="45.75121" lon="4.63878">
        <ele>682</ele>
        <time>2012-04-07T12:57:36Z</time>
      </trkpt>
      <trkpt lat="45.75121" lon="4.63878">
        <ele>652.9</ele>
        <time>2012-04-07T12:57:47Z</time>
      </trkpt>
      <trkpt lat="45.75121" lon="4.63878">
        <ele>652.9</ele>
        <time>2012-04-07T12:57:55Z</time>
      </trkpt>
      <trkpt lat="45.75121" lon="4.63878">
        <ele>652.9</ele>
        <time>2012-04-07T12:58:06Z</time>
      </trkpt>
      <trkpt lat="45.75121" lon="4.63878">
        <ele>652.9</ele>
        <time>2012-04-07T12:58:32Z</time>
      </trkpt>
      <trkpt lat="45.75121" lon="4.63878">
        <ele>652.9</ele>
        <time>2012-04-07T12:58:43Z</time>
      </trkpt>
      <trkpt lat="45.75121" lon="4.63878">
        <ele>652.9</ele>
        <time>2012-04-07T12:59:21Z</time>
      </trkpt>
      <trkpt lat="45.75126" lon="4.63854">
        <ele>686</ele>
        <time>2012-04-07T12:59:25Z</time>
      </trkpt>
      <trkpt lat="45.75126" lon="4.63854">
        <ele>652.5</ele>
        <time>2012-04-07T12:59:37Z</time>
      </trkpt>
      <trkpt lat="45.75126" lon="4.63854">
        <ele>652.5</ele>
        <time>2012-04-07T12:59:39Z</time>
      </trkpt>
      <trkpt lat="45.75126" lon="4.63854">
        <ele>652.5</ele>
        <time>2012-04-07T12:59:50Z</time>
      </trkpt>
      <trkpt lat="45.75126" lon="4.63854">
        <ele>652.5</ele>
        <time>2012-04-07T12:59:51Z</time>
      </trkpt>
      <trkpt lat="45.75175" lon="4.63835">
        <ele>689</ele>
        <time>2012-04-07T12:59:54Z</time>
      </trkpt>
      <trkpt lat="45.75182" lon="4.63833">
        <ele>689</ele>
        <time>2012-04-07T12:59:57Z</time>
      </trkpt>
      <trkpt lat="45.75194" lon="4.63828">
        <ele>689</ele>
        <time>2012-04-07T13:00:03Z</time>
      </trkpt>
      <trkpt lat="45.75201" lon="4.63824">
        <ele>689</ele>
        <time>2012-04-07T13:00:06Z</time>
      </trkpt>
      <trkpt lat="45.75212" lon="4.63813">
        <ele>689</ele>
        <time>2012-04-07T13:00:12Z</time>
      </trkpt>
      <trkpt lat="45.75218" lon="4.63807">
        <ele>689</ele>
        <time>2012-04-07T13:00:15Z</time>
      </trkpt>
      <trkpt lat="45.75224" lon="4.63801">
        <ele>690</ele>
        <time>2012-04-07T13:00:19Z</time>
      </trkpt>
      <trkpt lat="45.75224" lon="4.63801">
        <ele>654</ele>
        <time>2012-04-07T13:00:30Z</time>
      </trkpt>
      <trkpt lat="45.75224" lon="4.63801">
        <ele>654</ele>
        <time>2012-04-07T13:00:32Z</time>
      </trkpt>
      <trkpt lat="45.75244" lon="4.63773">
        <ele>691</ele>
        <time>2012-04-07T13:00:36Z</time>
      </trkpt>
      <trkpt lat="45.75248" lon="4.63766">
        <ele>692</ele>
        <time>2012-04-07T13:00:40Z</time>
      </trkpt>
      <trkpt lat="45.75252" lon="4.63759">
        <ele>692</ele>
        <time>2012-04-07T13:00:44Z</time>
      </trkpt>
      <trkpt lat="45.75257" lon="4.63752">
        <ele>693</ele>
        <time>2012-04-07T13:00:48Z</time>
      </trkpt>
      <trkpt lat="45.75266" lon="4.63736">
        <ele>693</ele>
        <time>2012-04-07T13:00:57Z</time>
      </trkpt>
      <trkpt lat="45.7527" lon="4.63729">
        <ele>694</ele>
        <time>2012-04-07T13:01:01Z</time>
      </trkpt>
      <trkpt lat="45.7528" lon="4.63712">
        <ele>695</ele>
        <time>2012-04-07T13:01:11Z</time>
      </trkpt>
      <trkpt lat="45.7528" lon="4.63712">
        <ele>655</ele>
        <time>2012-04-07T13:01:22Z</time>
      </trkpt>
      <trkpt lat="45.7528" lon="4.63712">
        <ele>655</ele>
        <time>2012-04-07T13:01:26Z</time>
      </trkpt>
      <trkpt lat="45.75276" lon="4.63676">
        <ele>696</ele>
        <time>2012-04-07T13:01:31Z</time>
      </trkpt>
      <trkpt lat="45.75273" lon="4.63667">
        <ele>697</ele>
        <time>2012-04-07T13:01:35Z</time>
      </trkpt>
      <trkpt lat="45.75271" lon="4.63658">
        <ele>697</ele>
        <time>2012-04-07T13:01:39Z</time>
      </trkpt>
      <trkpt lat="45.75269" lon="4.63648">
        <ele>698</ele>
        <time>2012-04-07T13:01:44Z</time>
      </trkpt>
      <trkpt lat="45.75268" lon="4.63639">
        <ele>698</ele>
        <time>2012-04-07T13:01:49Z</time>
      </trkpt>
      <trkpt lat="45.75265" lon="4.63628">
        <ele>698</ele>
        <time>2012-04-07T13:01:54Z</time>
      </trkpt>
      <trkpt lat="45.75263" lon="4.63619">
        <ele>699</ele>
        <time>2012-04-07T13:01:59Z</time>
      </trkpt>
      <trkpt lat="45.75262" lon="4.63609">
        <ele>699</ele>
        <time>2012-04-07T13:02:05Z</time>
      </trkpt>
      <trkpt lat="45.75261" lon="4.63599">
        <ele>699</ele>
        <time>2012-04-07T13:02:11Z</time>
      </trkpt>
      <trkpt lat="45.75261" lon="4.63589">
        <ele>700</ele>
        <time>2012-04-07T13:02:16Z</time>
      </trkpt>
      <trkpt lat="45.75261" lon="4.63579">
        <ele>700</ele>
        <time>2012-04-07T13:02:21Z</time>
      </trkpt>
      <trkpt lat="45.75258" lon="4.63559">
        <ele>701</ele>
        <time>2012-04-07T13:02:32Z</time>
      </trkpt>
      <trkpt lat="45.75256" lon="4.63549">
        <ele>701</ele>
        <time>2012-04-07T13:02:39Z</time>
      </trkpt>
      <trkpt lat="45.75255" lon="4.6354">
        <ele>701</ele>
        <time>2012-04-07T13:02:45Z</time>
      </trkpt>
      <trkpt lat="45.75255" lon="4.6354">
        <ele>671.8</ele>
        <time>2012-04-07T13:02:56Z</time>
      </trkpt>
      <trkpt lat="45.75255" lon="4.6354">
        <ele>671.8</ele>
        <time>2012-04-07T13:03:01Z</time>
      </trkpt>
      <trkpt lat="45.75251" lon="4.63501">
        <ele>702</ele>
        <time>2012-04-07T13:03:07Z</time>
      </trkpt>
      <trkpt lat="45.7525" lon="4.63491">
        <ele>702</ele>
        <time>2012-04-07T13:03:13Z</time>
      </trkpt>
      <trkpt lat="45.75248" lon="4.63481">
        <ele>702</ele>
        <time>2012-04-07T13:03:20Z</time>
      </trkpt>
      <trkpt lat="45.75248" lon="4.63481">
        <ele>677.6</ele>
        <time>2012-04-07T13:03:31Z</time>
      </trkpt>
      <trkpt lat="45.75248" lon="4.63481">
        <ele>677.6</ele>
        <time>2012-04-07T13:03:34Z</time>
      </trkpt>
      <trkpt lat="45.75245" lon="4.63452">
        <ele>703</ele>
        <time>2012-04-07T13:03:40Z</time>
      </trkpt>
      <trkpt lat="45.75244" lon="4.63441">
        <ele>703</ele>
        <time>2012-04-07T13:03:47Z</time>
      </trkpt>
      <trkpt lat="45.75243" lon="4.63432">
        <ele>704</ele>
        <time>2012-04-07T13:03:53Z</time>
      </trkpt>
      <trkpt lat="45.75242" lon="4.63422">
        <ele>704</ele>
        <time>2012-04-07T13:03:59Z</time>
      </trkpt>
      <trkpt lat="45.75241" lon="4.63413">
        <ele>705</ele>
        <time>2012-04-07T13:04:05Z</time>
      </trkpt>
      <trkpt lat="45.75241" lon="4.63403">
        <ele>706</ele>
        <time>2012-04-07T13:04:10Z</time>
      </trkpt>
      <trkpt lat="45.75249" lon="4.63386">
        <ele>708</ele>
        <time>2012-04-07T13:04:21Z</time>
      </trkpt>
      <trkpt lat="45.75249" lon="4.63386">
        <ele>682.8</ele>
        <time>2012-04-07T13:04:32Z</time>
      </trkpt>
      <trkpt lat="45.75249" lon="4.63386">
        <ele>682.8</ele>
        <time>2012-04-07T13:04:33Z</time>
      </trkpt>
      <trkpt lat="45.75263" lon="4.63367">
        <ele>711</ele>
        <time>2012-04-07T13:04:40Z</time>
      </trkpt>
      <trkpt lat="45.75268" lon="4.63361">
        <ele>711</ele>
        <time>2012-04-07T13:04:46Z</time>
      </trkpt>
      <trkpt lat="45.75272" lon="4.63353">
        <ele>712</ele>
        <time>2012-04-07T13:04:52Z</time>
      </trkpt>
      <trkpt lat="45.75276" lon="4.63344">
        <ele>713</ele>
        <time>2012-04-07T13:04:57Z</time>
      </trkpt>
      <trkpt lat="45.75279" lon="4.63335">
        <ele>714</ele>
        <time>2012-04-07T13:05:04Z</time>
      </trkpt>
      <trkpt lat="45.75283" lon="4.63327">
        <ele>715</ele>
        <time>2012-04-07T13:05:10Z</time>
      </trkpt>
      <trkpt lat="45.75288" lon="4.63322">
        <ele>715</ele>
        <time>2012-04-07T13:05:15Z</time>
      </trkpt>
      <trkpt lat="45.75297" lon="4.63306">
        <ele>716</ele>
        <time>2012-04-07T13:05:25Z</time>
      </trkpt>
      <trkpt lat="45.75304" lon="4.6329">
        <ele>717</ele>
        <time>2012-04-07T13:05:35Z</time>
      </trkpt>
      <trkpt lat="45.75308" lon="4.63282">
        <ele>718</ele>
        <time>2012-04-07T13:05:40Z</time>
      </trkpt>
      <trkpt lat="45.75312" lon="4.63275">
        <ele>718</ele>
        <time>2012-04-07T13:05:45Z</time>
      </trkpt>
      <trkpt lat="45.75322" lon="4.63262">
        <ele>719</ele>
        <time>2012-04-07T13:05:55Z</time>
      </trkpt>
      <trkpt lat="45.75333" lon="4.63251">
        <ele>720</ele>
        <time>2012-04-07T13:06:04Z</time>
      </trkpt>
      <trkpt lat="45.75338" lon="4.63243">
        <ele>720</ele>
        <time>2012-04-07T13:06:09Z</time>
      </trkpt>
      <trkpt lat="45.75347" lon="4.63228">
        <ele>721</ele>
        <time>2012-04-07T13:06:17Z</time>
      </trkpt>
      <trkpt lat="45.75352" lon="4.6321">
        <ele>722</ele>
        <time>2012-04-07T13:06:27Z</time>
      </trkpt>
      <trkpt lat="45.75354" lon="4.63201">
        <ele>722</ele>
        <time>2012-04-07T13:06:32Z</time>
      </trkpt>
      <trkpt lat="45.75356" lon="4.63191">
        <ele>722</ele>
        <time>2012-04-07T13:06:38Z</time>
      </trkpt>
      <trkpt lat="45.75359" lon="4.63182">
        <ele>723</ele>
        <time>2012-04-07T13:06:43Z</time>
      </trkpt>
      <trkpt lat="45.75367" lon="4.63165">
        <ele>724</ele>
        <time>2012-04-07T13:06:54Z</time>
      </trkpt>
      <trkpt lat="45.75367" lon="4.63165">
        <ele>694.5</ele>
        <time>2012-04-07T13:07:05Z</time>
      </trkpt>
      <trkpt lat="45.75367" lon="4.63165">
        <ele>694.5</ele>
        <time>2012-04-07T13:07:06Z</time>
      </trkpt>
      <trkpt lat="45.75381" lon="4.63145">
        <ele>726</ele>
        <time>2012-04-07T13:07:12Z</time>
      </trkpt>
      <trkpt lat="45.75386" lon="4.63138">
        <ele>726</ele>
        <time>2012-04-07T13:07:18Z</time>
      </trkpt>
      <trkpt lat="45.75391" lon="4.6313">
        <ele>726</ele>
        <time>2012-04-07T13:07:24Z</time>
      </trkpt>
      <trkpt lat="45.75396" lon="4.63124">
        <ele>727</ele>
        <time>2012-04-07T13:07:28Z</time>
      </trkpt>
      <trkpt lat="45.75406" lon="4.6311">
        <ele>727</ele>
        <time>2012-04-07T13:07:36Z</time>
      </trkpt>
      <trkpt lat="45.7541" lon="4.63102">
        <ele>728</ele>
        <time>2012-04-07T13:07:41Z</time>
      </trkpt>
      <trkpt lat="45.75415" lon="4.63094">
        <ele>728</ele>
        <time>2012-04-07T13:07:46Z</time>
      </trkpt>
      <trkpt lat="45.7542" lon="4.63086">
        <ele>728</ele>
        <time>2012-04-07T13:07:51Z</time>
      </trkpt>
      <trkpt lat="45.75423" lon="4.63078">
        <ele>729</ele>
        <time>2012-04-07T13:07:55Z</time>
      </trkpt>
      <trkpt lat="45.75431" lon="4.6306">
        <ele>729</ele>
        <time>2012-04-07T13:08:03Z</time>
      </trkpt>
      <trkpt lat="45.75439" lon="4.63041">
        <ele>730</ele>
        <time>2012-04-07T13:08:11Z</time>
      </trkpt>
      <trkpt lat="45.75441" lon="4.63032">
        <ele>730</ele>
        <time>2012-04-07T13:08:15Z</time>
      </trkpt>
      <trkpt lat="45.75444" lon="4.63023">
        <ele>731</ele>
        <time>2012-04-07T13:08:19Z</time>
      </trkpt>
      <trkpt lat="45.75447" lon="4.63014">
        <ele>731</ele>
        <time>2012-04-07T13:08:23Z</time>
      </trkpt>
      <trkpt lat="45.7545" lon="4.63006">
        <ele>731</ele>
        <time>2012-04-07T13:08:27Z</time>
      </trkpt>
      <trkpt lat="45.75455" lon="4.62997">
        <ele>732</ele>
        <time>2012-04-07T13:08:31Z</time>
      </trkpt>
      <trkpt lat="45.75458" lon="4.62989">
        <ele>732</ele>
        <time>2012-04-07T13:08:34Z</time>
      </trkpt>
      <trkpt lat="45.75462" lon="4.62979">
        <ele>733</ele>
        <time>2012-04-07T13:08:38Z</time>
      </trkpt>
      <trkpt lat="45.75467" lon="4.62969">
        <ele>733</ele>
        <time>2012-04-07T13:08:42Z</time>
      </trkpt>
      <trkpt lat="45.7547" lon="4.62959">
        <ele>733</ele>
        <time>2012-04-07T13:08:46Z</time>
      </trkpt>
      <trkpt lat="45.7547" lon="4.62959">
        <ele>696.4</ele>
        <time>2012-04-07T13:08:57Z</time>
      </trkpt>
      <trkpt lat="45.7547" lon="4.62959">
        <ele>696.4</ele>
        <time>2012-04-07T13:08:58Z</time>
      </trkpt>
      <trkpt lat="45.75489" lon="4.62904">
        <ele>735</ele>
        <time>2012-04-07T13:09:08Z</time>
      </trkpt>
      <trkpt lat="45.75491" lon="4.62895">
        <ele>735</ele>
        <time>2012-04-07T13:09:11Z</time>
      </trkpt>
      <trkpt lat="45.75494" lon="4.62887">
        <ele>736</ele>
        <time>2012-04-07T13:09:14Z</time>
      </trkpt>
      <trkpt lat="45.75507" lon="4.62859">
        <ele>736</ele>
        <time>2012-04-07T13:09:23Z</time>
      </trkpt>
      <trkpt lat="45.75513" lon="4.62854">
        <ele>736</ele>
        <time>2012-04-07T13:09:26Z</time>
      </trkpt>
      <trkpt lat="45.75519" lon="4.6285">
        <ele>737</ele>
        <time>2012-04-07T13:09:30Z</time>
      </trkpt>
      <trkpt lat="45.75546" lon="4.62838">
        <ele>737</ele>
        <time>2012-04-07T13:09:40Z</time>
      </trkpt>
      <trkpt lat="45.75561" lon="4.62832">
        <ele>737</ele>
        <time>2012-04-07T13:09:46Z</time>
      </trkpt>
      <trkpt lat="45.75569" lon="4.62831">
        <ele>737</ele>
        <time>2012-04-07T13:09:50Z</time>
      </trkpt>
      <trkpt lat="45.75584" lon="4.62832">
        <ele>738</ele>
        <time>2012-04-07T13:09:58Z</time>
      </trkpt>
      <trkpt lat="45.7559" lon="4.62833">
        <ele>738</ele>
        <time>2012-04-07T13:10:02Z</time>
      </trkpt>
      <trkpt lat="45.75598" lon="4.62834">
        <ele>738</ele>
        <time>2012-04-07T13:10:07Z</time>
      </trkpt>
      <trkpt lat="45.75604" lon="4.62834">
        <ele>738</ele>
        <time>2012-04-07T13:10:11Z</time>
      </trkpt>
      <trkpt lat="45.75612" lon="4.62835">
        <ele>738</ele>
        <time>2012-04-07T13:10:16Z</time>
      </trkpt>
      <trkpt lat="45.75612" lon="4.62835">
        <ele>702.6</ele>
        <time>2012-04-07T13:10:27Z</time>
      </trkpt>
      <trkpt lat="45.75612" lon="4.62835">
        <ele>702.6</ele>
        <time>2012-04-07T13:10:32Z</time>
      </trkpt>
      <trkpt lat="45.75612" lon="4.62835">
        <ele>702.6</ele>
        <time>2012-04-07T13:10:43Z</time>
      </trkpt>
      <trkpt lat="45.75612" lon="4.62835">
        <ele>702.6</ele>
        <time>2012-04-07T13:10:44Z</time>
      </trkpt>
      <trkpt lat="45.75647" lon="4.62845">
        <ele>739</ele>
        <time>2012-04-07T13:10:49Z</time>
      </trkpt>
      <trkpt lat="45.75655" lon="4.6285">
        <ele>739</ele>
        <time>2012-04-07T13:10:53Z</time>
      </trkpt>
      <trkpt lat="45.75663" lon="4.62855">
        <ele>739</ele>
        <time>2012-04-07T13:10:56Z</time>
      </trkpt>
      <trkpt lat="45.75678" lon="4.62863">
        <ele>739</ele>
        <time>2012-04-07T13:11:01Z</time>
      </trkpt>
      <trkpt lat="45.75693" lon="4.62871">
        <ele>739</ele>
        <time>2012-04-07T13:11:06Z</time>
      </trkpt>
      <trkpt lat="45.75707" lon="4.62878">
        <ele>740</ele>
        <time>2012-04-07T13:11:11Z</time>
      </trkpt>
      <trkpt lat="45.75723" lon="4.62886">
        <ele>740</ele>
        <time>2012-04-07T13:11:17Z</time>
      </trkpt>
      <trkpt lat="45.75738" lon="4.62894">
        <ele>740</ele>
        <time>2012-04-07T13:11:23Z</time>
      </trkpt>
      <trkpt lat="45.75744" lon="4.62898">
        <ele>740</ele>
        <time>2012-04-07T13:11:27Z</time>
      </trkpt>
      <trkpt lat="45.7575" lon="4.62902">
        <ele>740</ele>
        <time>2012-04-07T13:11:32Z</time>
      </trkpt>
      <trkpt lat="45.75757" lon="4.62906">
        <ele>740</ele>
        <time>2012-04-07T13:11:36Z</time>
      </trkpt>
      <trkpt lat="45.75764" lon="4.62909">
        <ele>740</ele>
        <time>2012-04-07T13:11:40Z</time>
      </trkpt>
      <trkpt lat="45.75771" lon="4.62913">
        <ele>740</ele>
        <time>2012-04-07T13:11:44Z</time>
      </trkpt>
      <trkpt lat="45.75778" lon="4.62917">
        <ele>740</ele>
        <time>2012-04-07T13:11:48Z</time>
      </trkpt>
      <trkpt lat="45.75785" lon="4.62921">
        <ele>740</ele>
        <time>2012-04-07T13:11:52Z</time>
      </trkpt>
      <trkpt lat="45.75799" lon="4.62928">
        <ele>740</ele>
        <time>2012-04-07T13:11:59Z</time>
      </trkpt>
      <trkpt lat="45.75805" lon="4.62931">
        <ele>741</ele>
        <time>2012-04-07T13:12:02Z</time>
      </trkpt>
      <trkpt lat="45.75811" lon="4.62933">
        <ele>741</ele>
        <time>2012-04-07T13:12:05Z</time>
      </trkpt>
      <trkpt lat="45.75823" lon="4.6294">
        <ele>741</ele>
        <time>2012-04-07T13:12:11Z</time>
      </trkpt>
      <trkpt lat="45.75829" lon="4.62943">
        <ele>741</ele>
        <time>2012-04-07T13:12:14Z</time>
      </trkpt>
      <trkpt lat="45.75842" lon="4.62949">
        <ele>741</ele>
        <time>2012-04-07T13:12:20Z</time>
      </trkpt>
      <trkpt lat="45.75855" lon="4.62957">
        <ele>741</ele>
        <time>2012-04-07T13:12:27Z</time>
      </trkpt>
      <trkpt lat="45.75862" lon="4.62961">
        <ele>741</ele>
        <time>2012-04-07T13:12:30Z</time>
      </trkpt>
      <trkpt lat="45.75873" lon="4.62972">
        <ele>741</ele>
        <time>2012-04-07T13:12:34Z</time>
      </trkpt>
      <trkpt lat="45.7588" lon="4.62978">
        <ele>742</ele>
        <time>2012-04-07T13:12:37Z</time>
      </trkpt>
      <trkpt lat="45.75893" lon="4.62987">
        <ele>742</ele>
        <time>2012-04-07T13:12:44Z</time>
      </trkpt>
      <trkpt lat="45.75898" lon="4.62992">
        <ele>742</ele>
        <time>2012-04-07T13:12:55Z</time>
      </trkpt>
      <trkpt lat="45.75898" lon="4.62992">
        <ele>718.1</ele>
        <time>2012-04-07T13:13:06Z</time>
      </trkpt>
      <trkpt lat="45.75898" lon="4.62992">
        <ele>718.1</ele>
        <time>2012-04-07T13:13:07Z</time>
      </trkpt>
      <trkpt lat="45.75898" lon="4.62992">
        <ele>718.1</ele>
        <time>2012-04-07T13:13:18Z</time>
      </trkpt>
      <trkpt lat="45.75898" lon="4.62992">
        <ele>718.1</ele>
        <time>2012-04-07T13:13:19Z</time>
      </trkpt>
      <trkpt lat="45.75922" lon="4.63011">
        <ele>743</ele>
        <time>2012-04-07T13:13:24Z</time>
      </trkpt>
      <trkpt lat="45.75928" lon="4.63015">
        <ele>743</ele>
        <time>2012-04-07T13:13:29Z</time>
      </trkpt>
      <trkpt lat="45.75934" lon="4.63021">
        <ele>743</ele>
        <time>2012-04-07T13:13:34Z</time>
      </trkpt>
      <trkpt lat="45.7594" lon="4.63026">
        <ele>743</ele>
        <time>2012-04-07T13:13:39Z</time>
      </trkpt>
      <trkpt lat="45.75952" lon="4.63035">
        <ele>743</ele>
        <time>2012-04-07T13:13:48Z</time>
      </trkpt>
      <trkpt lat="45.75959" lon="4.63039">
        <ele>743</ele>
        <time>2012-04-07T13:13:51Z</time>
      </trkpt>
      <trkpt lat="45.75991" lon="4.63043">
        <ele>744</ele>
        <time>2012-04-07T13:13:57Z</time>
      </trkpt>
      <trkpt lat="45.76023" lon="4.63031">
        <ele>745</ele>
        <time>2012-04-07T13:14:01Z</time>
      </trkpt>
      <trkpt lat="45.76048" lon="4.6301">
        <ele>745</ele>
        <time>2012-04-07T13:14:05Z</time>
      </trkpt>
      <trkpt lat="45.76063" lon="4.62992">
        <ele>745</ele>
        <time>2012-04-07T13:14:09Z</time>
      </trkpt>
      <trkpt lat="45.76074" lon="4.62974">
        <ele>745</ele>
        <time>2012-04-07T13:14:13Z</time>
      </trkpt>
      <trkpt lat="45.76078" lon="4.62966">
        <ele>745</ele>
        <time>2012-04-07T13:14:15Z</time>
      </trkpt>
      <trkpt lat="45.76082" lon="4.62949">
        <ele>745</ele>
        <time>2012-04-07T13:14:22Z</time>
      </trkpt>
      <trkpt lat="45.7608" lon="4.62935">
        <ele>746</ele>
        <time>2012-04-07T13:14:30Z</time>
      </trkpt>
      <trkpt lat="45.76076" lon="4.62923">
        <ele>747</ele>
        <time>2012-04-07T13:14:36Z</time>
      </trkpt>
      <trkpt lat="45.76075" lon="4.62895">
        <ele>748</ele>
        <time>2012-04-07T13:14:43Z</time>
      </trkpt>
      <trkpt lat="45.76077" lon="4.62878">
        <ele>748</ele>
        <time>2012-04-07T13:14:46Z</time>
      </trkpt>
      <trkpt lat="45.76079" lon="4.62865">
        <ele>749</ele>
        <time>2012-04-07T13:14:50Z</time>
      </trkpt>
      <trkpt lat="45.76082" lon="4.62851">
        <ele>749</ele>
        <time>2012-04-07T13:14:57Z</time>
      </trkpt>
      <trkpt lat="45.76086" lon="4.62838">
        <ele>750</ele>
        <time>2012-04-07T13:15:05Z</time>
      </trkpt>
      <trkpt lat="45.7609" lon="4.62826">
        <ele>750</ele>
        <time>2012-04-07T13:15:14Z</time>
      </trkpt>
      <trkpt lat="45.76095" lon="4.62815">
        <ele>750</ele>
        <time>2012-04-07T13:15:24Z</time>
      </trkpt>
      <trkpt lat="45.76095" lon="4.62815">
        <ele>719.6</ele>
        <time>2012-04-07T13:15:35Z</time>
      </trkpt>
      <trkpt lat="45.76095" lon="4.62815">
        <ele>719.6</ele>
        <time>2012-04-07T13:15:44Z</time>
      </trkpt>
      <trkpt lat="45.76121" lon="4.62795">
        <ele>752</ele>
        <time>2012-04-07T13:15:52Z</time>
      </trkpt>
      <trkpt lat="45.76141" lon="4.62801">
        <ele>753</ele>
        <time>2012-04-07T13:16:00Z</time>
      </trkpt>
      <trkpt lat="45.76151" lon="4.62806">
        <ele>753</ele>
        <time>2012-04-07T13:16:03Z</time>
      </trkpt>
      <trkpt lat="45.76151" lon="4.62806">
        <ele>718.3</ele>
        <time>2012-04-07T13:16:14Z</time>
      </trkpt>
      <trkpt lat="45.76151" lon="4.62806">
        <ele>718.3</ele>
        <time>2012-04-07T13:16:29Z</time>
      </trkpt>
      <trkpt lat="45.76184" lon="4.62816">
        <ele>754</ele>
        <time>2012-04-07T13:16:32Z</time>
      </trkpt>
      <trkpt lat="45.762" lon="4.62819">
        <ele>754</ele>
        <time>2012-04-07T13:16:36Z</time>
      </trkpt>
      <trkpt lat="45.76211" lon="4.62821">
        <ele>754</ele>
        <time>2012-04-07T13:16:39Z</time>
      </trkpt>
      <trkpt lat="45.7623" lon="4.62824">
        <ele>755</ele>
        <time>2012-04-07T13:16:45Z</time>
      </trkpt>
      <trkpt lat="45.76248" lon="4.62835">
        <ele>755</ele>
        <time>2012-04-07T13:16:52Z</time>
      </trkpt>
      <trkpt lat="45.76257" lon="4.62853">
        <ele>755</ele>
        <time>2012-04-07T13:16:56Z</time>
      </trkpt>
      <trkpt lat="45.76261" lon="4.62864">
        <ele>756</ele>
        <time>2012-04-07T13:16:59Z</time>
      </trkpt>
      <trkpt lat="45.76272" lon="4.62885">
        <ele>756</ele>
        <time>2012-04-07T13:17:07Z</time>
      </trkpt>
      <trkpt lat="45.76272" lon="4.62885">
        <ele>715</ele>
        <time>2012-04-07T13:17:18Z</time>
      </trkpt>
      <trkpt lat="45.76272" lon="4.62885">
        <ele>715</ele>
        <time>2012-04-07T13:17:43Z</time>
      </trkpt>
      <trkpt lat="45.76272" lon="4.62885">
        <ele>715</ele>
        <time>2012-04-07T13:17:54Z</time>
      </trkpt>
      <trkpt lat="45.76272" lon="4.62885">
        <ele>715</ele>
        <time>2012-04-07T13:17:56Z</time>
      </trkpt>
      <trkpt lat="45.76289" lon="4.62921">
        <ele>759</ele>
        <time>2012-04-07T13:18:00Z</time>
      </trkpt>
      <trkpt lat="45.76294" lon="4.62929">
        <ele>759</ele>
        <time>2012-04-07T13:18:02Z</time>
      </trkpt>
      <trkpt lat="45.763" lon="4.62936">
        <ele>759</ele>
        <time>2012-04-07T13:18:05Z</time>
      </trkpt>
      <trkpt lat="45.76314" lon="4.62948">
        <ele>760</ele>
        <time>2012-04-07T13:18:16Z</time>
      </trkpt>
      <trkpt lat="45.76323" lon="4.62954">
        <ele>760</ele>
        <time>2012-04-07T13:18:23Z</time>
      </trkpt>
      <trkpt lat="45.76323" lon="4.62954">
        <ele>720.2</ele>
        <time>2012-04-07T13:18:34Z</time>
      </trkpt>
      <trkpt lat="45.76323" lon="4.62954">
        <ele>720.2</ele>
        <time>2012-04-07T13:18:38Z</time>
      </trkpt>
      <trkpt lat="45.76349" lon="4.62974">
        <ele>761</ele>
        <time>2012-04-07T13:18:45Z</time>
      </trkpt>
      <trkpt lat="45.76349" lon="4.62974">
        <ele>722.6</ele>
        <time>2012-04-07T13:18:56Z</time>
      </trkpt>
      <trkpt lat="45.76349" lon="4.62974">
        <ele>722.6</ele>
        <time>2012-04-07T13:18:59Z</time>
      </trkpt>
      <trkpt lat="45.76376" lon="4.62992">
        <ele>762</ele>
        <time>2012-04-07T13:19:06Z</time>
      </trkpt>
      <trkpt lat="45.76376" lon="4.62992">
        <ele>724.2</ele>
        <time>2012-04-07T13:19:17Z</time>
      </trkpt>
      <trkpt lat="45.76376" lon="4.62992">
        <ele>724.2</ele>
        <time>2012-04-07T13:19:22Z</time>
      </trkpt>
      <trkpt lat="45.76376" lon="4.62992">
        <ele>724.2</ele>
        <time>2012-04-07T13:19:33Z</time>
      </trkpt>
      <trkpt lat="45.76376" lon="4.62992">
        <ele>724.2</ele>
        <time>2012-04-07T13:19:37Z</time>
      </trkpt>
      <trkpt lat="45.76419" lon="4.63013">
        <ele>764</ele>
        <time>2012-04-07T13:19:42Z</time>
      </trkpt>
      <trkpt lat="45.76429" lon="4.63021">
        <ele>764</ele>
        <time>2012-04-07T13:19:47Z</time>
      </trkpt>
      <trkpt lat="45.7644" lon="4.63028">
        <ele>764</ele>
        <time>2012-04-07T13:19:51Z</time>
      </trkpt>
      <trkpt lat="45.76462" lon="4.63031">
        <ele>765</ele>
        <time>2012-04-07T13:19:57Z</time>
      </trkpt>
      <trkpt lat="45.76476" lon="4.63031">
        <ele>765</ele>
        <time>2012-04-07T13:20:01Z</time>
      </trkpt>
      <trkpt lat="45.76502" lon="4.63033">
        <ele>765</ele>
        <time>2012-04-07T13:20:12Z</time>
      </trkpt>
      <trkpt lat="45.76512" lon="4.63034">
        <ele>765</ele>
        <time>2012-04-07T13:20:15Z</time>
      </trkpt>
      <trkpt lat="45.76521" lon="4.63033">
        <ele>765</ele>
        <time>2012-04-07T13:20:18Z</time>
      </trkpt>
      <trkpt lat="45.76532" lon="4.63033">
        <ele>765</ele>
        <time>2012-04-07T13:20:22Z</time>
      </trkpt>
      <trkpt lat="45.76547" lon="4.63031">
        <ele>766</ele>
        <time>2012-04-07T13:20:27Z</time>
      </trkpt>
      <trkpt lat="45.76547" lon="4.63031">
        <ele>729.8</ele>
        <time>2012-04-07T13:20:38Z</time>
      </trkpt>
      <trkpt lat="45.76547" lon="4.63031">
        <ele>729.8</ele>
        <time>2012-04-07T13:21:01Z</time>
      </trkpt>
      <trkpt lat="45.76592" lon="4.63009">
        <ele>767</ele>
        <time>2012-04-07T13:21:07Z</time>
      </trkpt>
      <trkpt lat="45.76599" lon="4.63009">
        <ele>767</ele>
        <time>2012-04-07T13:21:10Z</time>
      </trkpt>
      <trkpt lat="45.76606" lon="4.63009">
        <ele>768</ele>
        <time>2012-04-07T13:21:13Z</time>
      </trkpt>
      <trkpt lat="45.76614" lon="4.63009">
        <ele>768</ele>
        <time>2012-04-07T13:21:17Z</time>
      </trkpt>
      <trkpt lat="45.76621" lon="4.63007">
        <ele>768</ele>
        <time>2012-04-07T13:21:21Z</time>
      </trkpt>
      <trkpt lat="45.76647" lon="4.62988">
        <ele>768</ele>
        <time>2012-04-07T13:21:31Z</time>
      </trkpt>
      <trkpt lat="45.76654" lon="4.62987">
        <ele>769</ele>
        <time>2012-04-07T13:21:34Z</time>
      </trkpt>
      <trkpt lat="45.76667" lon="4.62988">
        <ele>769</ele>
        <time>2012-04-07T13:21:45Z</time>
      </trkpt>
      <trkpt lat="45.76681" lon="4.62998">
        <ele>769</ele>
        <time>2012-04-07T13:21:53Z</time>
      </trkpt>
      <trkpt lat="45.7669" lon="4.63015">
        <ele>769</ele>
        <time>2012-04-07T13:21:59Z</time>
      </trkpt>
      <trkpt lat="45.76698" lon="4.63031">
        <ele>769</ele>
        <time>2012-04-07T13:22:05Z</time>
      </trkpt>
      <trkpt lat="45.76705" lon="4.63047">
        <ele>770</ele>
        <time>2012-04-07T13:22:11Z</time>
      </trkpt>
      <trkpt lat="45.76713" lon="4.63064">
        <ele>770</ele>
        <time>2012-04-07T13:22:20Z</time>
      </trkpt>
      <trkpt lat="45.76723" lon="4.63078">
        <ele>771</ele>
        <time>2012-04-07T13:22:30Z</time>
      </trkpt>
      <trkpt lat="45.76729" lon="4.63084">
        <ele>771</ele>
        <time>2012-04-07T13:22:35Z</time>
      </trkpt>
      <trkpt lat="45.76739" lon="4.63097">
        <ele>771</ele>
        <time>2012-04-07T13:22:44Z</time>
      </trkpt>
      <trkpt lat="45.76746" lon="4.63106">
        <ele>771</ele>
        <time>2012-04-07T13:22:48Z</time>
      </trkpt>
      <trkpt lat="45.7675" lon="4.63112">
        <ele>771</ele>
        <time>2012-04-07T13:22:51Z</time>
      </trkpt>
      <trkpt lat="45.76756" lon="4.63121">
        <ele>771</ele>
        <time>2012-04-07T13:22:55Z</time>
      </trkpt>
      <trkpt lat="45.76761" lon="4.63129">
        <ele>772</ele>
        <time>2012-04-07T13:23:00Z</time>
      </trkpt>
      <trkpt lat="45.76766" lon="4.63136">
        <ele>772</ele>
        <time>2012-04-07T13:23:03Z</time>
      </trkpt>
      <trkpt lat="45.76773" lon="4.63142">
        <ele>772</ele>
        <time>2012-04-07T13:23:08Z</time>
      </trkpt>
      <trkpt lat="45.76779" lon="4.63148">
        <ele>772</ele>
        <time>2012-04-07T13:23:12Z</time>
      </trkpt>
      <trkpt lat="45.76787" lon="4.63152">
        <ele>772</ele>
        <time>2012-04-07T13:23:16Z</time>
      </trkpt>
      <trkpt lat="45.76795" lon="4.63157">
        <ele>772</ele>
        <time>2012-04-07T13:23:19Z</time>
      </trkpt>
      <trkpt lat="45.76813" lon="4.63176">
        <ele>772</ele>
        <time>2012-04-07T13:23:23Z</time>
      </trkpt>
      <trkpt lat="45.76833" lon="4.63193">
        <ele>773</ele>
        <time>2012-04-07T13:23:27Z</time>
      </trkpt>
      <trkpt lat="45.76854" lon="4.632">
        <ele>773</ele>
        <time>2012-04-07T13:23:31Z</time>
      </trkpt>
      <trkpt lat="45.76874" lon="4.63209">
        <ele>773</ele>
        <time>2012-04-07T13:23:35Z</time>
      </trkpt>
      <trkpt lat="45.76894" lon="4.6322">
        <ele>774</ele>
        <time>2012-04-07T13:23:39Z</time>
      </trkpt>
      <trkpt lat="45.76914" lon="4.6323">
        <ele>773</ele>
        <time>2012-04-07T13:23:43Z</time>
      </trkpt>
      <trkpt lat="45.76933" lon="4.63241">
        <ele>773</ele>
        <time>2012-04-07T13:23:47Z</time>
      </trkpt>
      <trkpt lat="45.76947" lon="4.63253">
        <ele>773</ele>
        <time>2012-04-07T13:23:51Z</time>
      </trkpt>
      <trkpt lat="45.76954" lon="4.6327">
        <ele>773</ele>
        <time>2012-04-07T13:23:58Z</time>
      </trkpt>
      <trkpt lat="45.76959" lon="4.63281">
        <ele>774</ele>
        <time>2012-04-07T13:24:02Z</time>
      </trkpt>
      <trkpt lat="45.76969" lon="4.63305">
        <ele>775</ele>
        <time>2012-04-07T13:24:13Z</time>
      </trkpt>
      <trkpt lat="45.76975" lon="4.63315">
        <ele>775</ele>
        <time>2012-04-07T13:24:20Z</time>
      </trkpt>
      <trkpt lat="45.76975" lon="4.63315">
        <ele>729.2</ele>
        <time>2012-04-07T13:24:31Z</time>
      </trkpt>
      <trkpt lat="45.76975" lon="4.63315">
        <ele>729.2</ele>
        <time>2012-04-07T13:24:32Z</time>
      </trkpt>
      <trkpt lat="45.76993" lon="4.63349">
        <ele>777</ele>
        <time>2012-04-07T13:24:40Z</time>
      </trkpt>
      <trkpt lat="45.77" lon="4.63358">
        <ele>777</ele>
        <time>2012-04-07T13:24:48Z</time>
      </trkpt>
      <trkpt lat="45.77006" lon="4.63369">
        <ele>778</ele>
        <time>2012-04-07T13:24:57Z</time>
      </trkpt>
      <trkpt lat="45.77013" lon="4.63378">
        <ele>778</ele>
        <time>2012-04-07T13:25:03Z</time>
      </trkpt>
      <trkpt lat="45.7702" lon="4.63389">
        <ele>778</ele>
        <time>2012-04-07T13:25:09Z</time>
      </trkpt>
      <trkpt lat="45.77024" lon="4.634">
        <ele>779</ele>
        <time>2012-04-07T13:25:14Z</time>
      </trkpt>
      <trkpt lat="45.77028" lon="4.63415">
        <ele>779</ele>
        <time>2012-04-07T13:25:20Z</time>
      </trkpt>
      <trkpt lat="45.77034" lon="4.63425">
        <ele>779</ele>
        <time>2012-04-07T13:25:26Z</time>
      </trkpt>
      <trkpt lat="45.77034" lon="4.63425">
        <ele>736</ele>
        <time>2012-04-07T13:25:37Z</time>
      </trkpt>
      <trkpt lat="45.77034" lon="4.63425">
        <ele>736</ele>
        <time>2012-04-07T13:26:40Z</time>
      </trkpt>
      <trkpt lat="45.77071" lon="4.6343">
        <ele>780</ele>
        <time>2012-04-07T13:26:44Z</time>
      </trkpt>
      <trkpt lat="45.77091" lon="4.63427">
        <ele>780</ele>
        <time>2012-04-07T13:26:51Z</time>
      </trkpt>
      <trkpt lat="45.77098" lon="4.63425">
        <ele>781</ele>
        <time>2012-04-07T13:26:54Z</time>
      </trkpt>
      <trkpt lat="45.77104" lon="4.63427">
        <ele>781</ele>
        <time>2012-04-07T13:26:57Z</time>
      </trkpt>
      <trkpt lat="45.77117" lon="4.63435">
        <ele>781</ele>
        <time>2012-04-07T13:27:03Z</time>
      </trkpt>
      <trkpt lat="45.77124" lon="4.63438">
        <ele>781</ele>
        <time>2012-04-07T13:27:06Z</time>
      </trkpt>
      <trkpt lat="45.7714" lon="4.63435">
        <ele>782</ele>
        <time>2012-04-07T13:27:12Z</time>
      </trkpt>
      <trkpt lat="45.77149" lon="4.63439">
        <ele>782</ele>
        <time>2012-04-07T13:27:15Z</time>
      </trkpt>
      <trkpt lat="45.77165" lon="4.63448">
        <ele>782</ele>
        <time>2012-04-07T13:27:21Z</time>
      </trkpt>
      <trkpt lat="45.77171" lon="4.63456">
        <ele>783</ele>
        <time>2012-04-07T13:27:25Z</time>
      </trkpt>
      <trkpt lat="45.77175" lon="4.63463">
        <ele>783</ele>
        <time>2012-04-07T13:27:30Z</time>
      </trkpt>
      <trkpt lat="45.77175" lon="4.63463">
        <ele>711.8</ele>
        <time>2012-04-07T13:27:41Z</time>
      </trkpt>
      <trkpt lat="45.77175" lon="4.63463">
        <ele>711.8</ele>
        <time>2012-04-07T13:27:48Z</time>
      </trkpt>
      <trkpt lat="45.77189" lon="4.63493">
        <ele>784</ele>
        <time>2012-04-07T13:27:59Z</time>
      </trkpt>
      <trkpt lat="45.77188" lon="4.63505">
        <ele>784</ele>
        <time>2012-04-07T13:28:02Z</time>
      </trkpt>
      <trkpt lat="45.77187" lon="4.63527">
        <ele>784</ele>
        <time>2012-04-07T13:28:07Z</time>
      </trkpt>
      <trkpt lat="45.77191" lon="4.63535">
        <ele>784</ele>
        <time>2012-04-07T13:28:10Z</time>
      </trkpt>
      <trkpt lat="45.77195" lon="4.63544">
        <ele>784</ele>
        <time>2012-04-07T13:28:13Z</time>
      </trkpt>
      <trkpt lat="45.77197" lon="4.63553">
        <ele>784</ele>
        <time>2012-04-07T13:28:18Z</time>
      </trkpt>
      <trkpt lat="45.77194" lon="4.63563">
        <ele>784</ele>
        <time>2012-04-07T13:28:25Z</time>
      </trkpt>
      <trkpt lat="45.772" lon="4.63602">
        <ele>784</ele>
        <time>2012-04-07T13:28:31Z</time>
      </trkpt>
      <trkpt lat="45.77203" lon="4.63616">
        <ele>784</ele>
        <time>2012-04-07T13:28:33Z</time>
      </trkpt>
      <trkpt lat="45.77209" lon="4.63643">
        <ele>784</ele>
        <time>2012-04-07T13:28:37Z</time>
      </trkpt>
      <trkpt lat="45.77228" lon="4.63659">
        <ele>785</ele>
        <time>2012-04-07T13:28:43Z</time>
      </trkpt>
      <trkpt lat="45.77228" lon="4.63659">
        <ele>676.3</ele>
        <time>2012-04-07T13:28:54Z</time>
      </trkpt>
      <trkpt lat="45.77228" lon="4.63659">
        <ele>676.3</ele>
        <time>2012-04-07T13:29:17Z</time>
      </trkpt>
      <trkpt lat="45.77253" lon="4.63679">
        <ele>780</ele>
        <time>2012-04-07T13:29:21Z</time>
      </trkpt>
      <trkpt lat="45.77279" lon="4.63692">
        <ele>776</ele>
        <time>2012-04-07T13:29:27Z</time>
      </trkpt>
      <trkpt lat="45.77291" lon="4.63693">
        <ele>776</ele>
        <time>2012-04-07T13:29:38Z</time>
      </trkpt>
      <trkpt lat="45.77291" lon="4.63693">
        <ele>664.2</ele>
        <time>2012-04-07T13:29:49Z</time>
      </trkpt>
      <trkpt lat="45.77291" lon="4.63693">
        <ele>664.2</ele>
        <time>2012-04-07T13:29:56Z</time>
      </trkpt>
      <trkpt lat="45.7732" lon="4.63665">
        <ele>776</ele>
        <time>2012-04-07T13:29:58Z</time>
      </trkpt>
      <trkpt lat="45.7733" lon="4.63684">
        <ele>775</ele>
        <time>2012-04-07T13:30:02Z</time>
      </trkpt>
      <trkpt lat="45.77367" lon="4.63696">
        <ele>771</ele>
        <time>2012-04-07T13:30:09Z</time>
      </trkpt>
      <trkpt lat="45.77419" lon="4.63674">
        <ele>762</ele>
        <time>2012-04-07T13:30:17Z</time>
      </trkpt>
      <trkpt lat="45.77434" lon="4.6367">
        <ele>761</ele>
        <time>2012-04-07T13:30:21Z</time>
      </trkpt>
      <trkpt lat="45.77484" lon="4.63683">
        <ele>758</ele>
        <time>2012-04-07T13:30:29Z</time>
      </trkpt>
      <trkpt lat="45.77522" lon="4.63714">
        <ele>756</ele>
        <time>2012-04-07T13:30:33Z</time>
      </trkpt>
      <trkpt lat="45.77551" lon="4.63753">
        <ele>753</ele>
        <time>2012-04-07T13:30:37Z</time>
      </trkpt>
      <trkpt lat="45.77562" lon="4.63794">
        <ele>749</ele>
        <time>2012-04-07T13:30:41Z</time>
      </trkpt>
      <trkpt lat="45.77568" lon="4.63812">
        <ele>747</ele>
        <time>2012-04-07T13:30:43Z</time>
      </trkpt>
      <trkpt lat="45.77578" lon="4.63838">
        <ele>744</ele>
        <time>2012-04-07T13:30:47Z</time>
      </trkpt>
      <trkpt lat="45.77578" lon="4.63838">
        <ele>604.1</ele>
        <time>2012-04-07T13:30:58Z</time>
      </trkpt>
      <trkpt lat="45.77578" lon="4.63838">
        <ele>604.1</ele>
        <time>2012-04-07T13:31:45Z</time>
      </trkpt>
      <trkpt lat="45.77578" lon="4.63838">
        <ele>604.1</ele>
        <time>2012-04-07T13:31:56Z</time>
      </trkpt>
      <trkpt lat="45.77578" lon="4.63838">
        <ele>604.1</ele>
        <time>2012-04-07T13:32:00Z</time>
      </trkpt>
      <trkpt lat="45.77632" lon="4.63881">
        <ele>736</ele>
        <time>2012-04-07T13:32:08Z</time>
      </trkpt>
      <trkpt lat="45.77641" lon="4.63886">
        <ele>735</ele>
        <time>2012-04-07T13:32:13Z</time>
      </trkpt>
      <trkpt lat="45.77651" lon="4.63892">
        <ele>735</ele>
        <time>2012-04-07T13:32:17Z</time>
      </trkpt>
      <trkpt lat="45.7766" lon="4.63898">
        <ele>734</ele>
        <time>2012-04-07T13:32:20Z</time>
      </trkpt>
      <trkpt lat="45.77669" lon="4.63905">
        <ele>733</ele>
        <time>2012-04-07T13:32:24Z</time>
      </trkpt>
      <trkpt lat="45.77684" lon="4.63915">
        <ele>731</ele>
        <time>2012-04-07T13:32:29Z</time>
      </trkpt>
      <trkpt lat="45.77691" lon="4.6392">
        <ele>730</ele>
        <time>2012-04-07T13:32:31Z</time>
      </trkpt>
      <trkpt lat="45.77712" lon="4.63926">
        <ele>727</ele>
        <time>2012-04-07T13:32:36Z</time>
      </trkpt>
      <trkpt lat="45.77726" lon="4.63929">
        <ele>725</ele>
        <time>2012-04-07T13:32:40Z</time>
      </trkpt>
      <trkpt lat="45.77739" lon="4.63937">
        <ele>723</ele>
        <time>2012-04-07T13:32:45Z</time>
      </trkpt>
      <trkpt lat="45.77746" lon="4.63941">
        <ele>722</ele>
        <time>2012-04-07T13:32:46Z</time>
      </trkpt>
      <trkpt lat="45.77759" lon="4.63953">
        <ele>721</ele>
        <time>2012-04-07T13:32:51Z</time>
      </trkpt>
      <trkpt lat="45.77771" lon="4.63965">
        <ele>719</ele>
        <time>2012-04-07T13:32:56Z</time>
      </trkpt>
      <trkpt lat="45.77786" lon="4.63983">
        <ele>717</ele>
        <time>2012-04-07T13:33:05Z</time>
      </trkpt>
      <trkpt lat="45.7779" lon="4.63993">
        <ele>715</ele>
        <time>2012-04-07T13:33:08Z</time>
      </trkpt>
      <trkpt lat="45.77795" lon="4.64002">
        <ele>714</ele>
        <time>2012-04-07T13:33:11Z</time>
      </trkpt>
      <trkpt lat="45.77807" lon="4.64021">
        <ele>712</ele>
        <time>2012-04-07T13:33:16Z</time>
      </trkpt>
      <trkpt lat="45.77817" lon="4.64039">
        <ele>711</ele>
        <time>2012-04-07T13:33:22Z</time>
      </trkpt>
      <trkpt lat="45.77824" lon="4.64059">
        <ele>709</ele>
        <time>2012-04-07T13:33:28Z</time>
      </trkpt>
      <trkpt lat="45.77824" lon="4.64059">
        <ele>602</ele>
        <time>2012-04-07T13:33:40Z</time>
      </trkpt>
      <trkpt lat="45.77824" lon="4.64059">
        <ele>602</ele>
        <time>2012-04-07T13:33:44Z</time>
      </trkpt>
      <trkpt lat="45.77833" lon="4.64078">
        <ele>706</ele>
        <time>2012-04-07T13:33:48Z</time>
      </trkpt>
      <trkpt lat="45.77842" lon="4.64095">
        <ele>703</ele>
        <time>2012-04-07T13:33:56Z</time>
      </trkpt>
      <trkpt lat="45.77846" lon="4.64103">
        <ele>702</ele>
        <time>2012-04-07T13:34:00Z</time>
      </trkpt>
      <trkpt lat="45.77849" lon="4.64113">
        <ele>700</ele>
        <time>2012-04-07T13:34:05Z</time>
      </trkpt>
      <trkpt lat="45.77853" lon="4.64121">
        <ele>699</ele>
        <time>2012-04-07T13:34:10Z</time>
      </trkpt>
      <trkpt lat="45.77857" lon="4.64129">
        <ele>698</ele>
        <time>2012-04-07T13:34:15Z</time>
      </trkpt>
      <trkpt lat="45.7786" lon="4.64136">
        <ele>696</ele>
        <time>2012-04-07T13:34:21Z</time>
      </trkpt>
      <trkpt lat="45.77865" lon="4.64143">
        <ele>695</ele>
        <time>2012-04-07T13:34:28Z</time>
      </trkpt>
      <trkpt lat="45.77869" lon="4.6415">
        <ele>694</ele>
        <time>2012-04-07T13:34:34Z</time>
      </trkpt>
      <trkpt lat="45.77873" lon="4.64157">
        <ele>693</ele>
        <time>2012-04-07T13:34:42Z</time>
      </trkpt>
      <trkpt lat="45.77876" lon="4.64167">
        <ele>692</ele>
        <time>2012-04-07T13:34:47Z</time>
      </trkpt>
      <trkpt lat="45.77879" lon="4.64175">
        <ele>692</ele>
        <time>2012-04-07T13:34:52Z</time>
      </trkpt>
      <trkpt lat="45.77883" lon="4.64182">
        <ele>691</ele>
        <time>2012-04-07T13:34:58Z</time>
      </trkpt>
      <trkpt lat="45.77883" lon="4.64182">
        <ele>614.1</ele>
        <time>2012-04-07T13:35:09Z</time>
      </trkpt>
      <trkpt lat="45.77883" lon="4.64182">
        <ele>614.1</ele>
        <time>2012-04-07T13:35:17Z</time>
      </trkpt>
      <trkpt lat="45.77899" lon="4.64214">
        <ele>690</ele>
        <time>2012-04-07T13:35:24Z</time>
      </trkpt>
      <trkpt lat="45.77899" lon="4.64214">
        <ele>616</ele>
        <time>2012-04-07T13:35:35Z</time>
      </trkpt>
      <trkpt lat="45.77899" lon="4.64214">
        <ele>616</ele>
        <time>2012-04-07T13:35:41Z</time>
      </trkpt>
      <trkpt lat="45.77916" lon="4.64243">
        <ele>689</ele>
        <time>2012-04-07T13:35:46Z</time>
      </trkpt>
      <trkpt lat="45.77921" lon="4.64251">
        <ele>689</ele>
        <time>2012-04-07T13:35:52Z</time>
      </trkpt>
      <trkpt lat="45.77926" lon="4.64258">
        <ele>689</ele>
        <time>2012-04-07T13:35:58Z</time>
      </trkpt>
      <trkpt lat="45.7793" lon="4.64266">
        <ele>689</ele>
        <time>2012-04-07T13:36:04Z</time>
      </trkpt>
      <trkpt lat="45.77933" lon="4.64274">
        <ele>689</ele>
        <time>2012-04-07T13:36:10Z</time>
      </trkpt>
      <trkpt lat="45.77934" lon="4.64284">
        <ele>689</ele>
        <time>2012-04-07T13:36:18Z</time>
      </trkpt>
      <trkpt lat="45.77937" lon="4.64294">
        <ele>689</ele>
        <time>2012-04-07T13:36:25Z</time>
      </trkpt>
      <trkpt lat="45.7794" lon="4.64303">
        <ele>689</ele>
        <time>2012-04-07T13:36:31Z</time>
      </trkpt>
      <trkpt lat="45.7794" lon="4.64303">
        <ele>624.1</ele>
        <time>2012-04-07T13:36:42Z</time>
      </trkpt>
      <trkpt lat="45.7794" lon="4.64303">
        <ele>624.1</ele>
        <time>2012-04-07T13:36:43Z</time>
      </trkpt>
      <trkpt lat="45.77956" lon="4.64334">
        <ele>689</ele>
        <time>2012-04-07T13:36:47Z</time>
      </trkpt>
      <trkpt lat="45.77961" lon="4.6434">
        <ele>689</ele>
        <time>2012-04-07T13:36:52Z</time>
      </trkpt>
      <trkpt lat="45.77966" lon="4.64348">
        <ele>689</ele>
        <time>2012-04-07T13:36:58Z</time>
      </trkpt>
      <trkpt lat="45.77966" lon="4.64348">
        <ele>630.9</ele>
        <time>2012-04-07T13:37:09Z</time>
      </trkpt>
      <trkpt lat="45.77966" lon="4.64348">
        <ele>630.9</ele>
        <time>2012-04-07T13:37:10Z</time>
      </trkpt>
      <trkpt lat="45.77977" lon="4.64373">
        <ele>689</ele>
        <time>2012-04-07T13:37:16Z</time>
      </trkpt>
      <trkpt lat="45.77977" lon="4.64373">
        <ele>633.4</ele>
        <time>2012-04-07T13:37:28Z</time>
      </trkpt>
      <trkpt lat="45.77977" lon="4.64373">
        <ele>633.4</ele>
        <time>2012-04-07T13:37:35Z</time>
      </trkpt>
      <trkpt lat="45.77994" lon="4.64401">
        <ele>690</ele>
        <time>2012-04-07T13:37:43Z</time>
      </trkpt>
      <trkpt lat="45.77999" lon="4.64409">
        <ele>690</ele>
        <time>2012-04-07T13:37:50Z</time>
      </trkpt>
      <trkpt lat="45.78002" lon="4.64416">
        <ele>690</ele>
        <time>2012-04-07T13:37:56Z</time>
      </trkpt>
      <trkpt lat="45.78007" lon="4.64424">
        <ele>690</ele>
        <time>2012-04-07T13:38:01Z</time>
      </trkpt>
      <trkpt lat="45.78011" lon="4.64432">
        <ele>691</ele>
        <time>2012-04-07T13:38:08Z</time>
      </trkpt>
      <trkpt lat="45.78011" lon="4.64432">
        <ele>639.5</ele>
        <time>2012-04-07T13:38:19Z</time>
      </trkpt>
      <trkpt lat="45.78011" lon="4.64432">
        <ele>639.5</ele>
        <time>2012-04-07T13:38:23Z</time>
      </trkpt>
      <trkpt lat="45.78011" lon="4.64432">
        <ele>639.5</ele>
        <time>2012-04-07T13:38:34Z</time>
      </trkpt>
      <trkpt lat="45.78011" lon="4.64432">
        <ele>639.5</ele>
        <time>2012-04-07T13:39:08Z</time>
      </trkpt>
      <trkpt lat="45.78037" lon="4.6446">
        <ele>692</ele>
        <time>2012-04-07T13:39:17Z</time>
      </trkpt>
      <trkpt lat="45.78062" lon="4.6449">
        <ele>693</ele>
        <time>2012-04-07T13:39:25Z</time>
      </trkpt>
      <trkpt lat="45.78091" lon="4.6451">
        <ele>695</ele>
        <time>2012-04-07T13:39:30Z</time>
      </trkpt>
      <trkpt lat="45.78117" lon="4.6453">
        <ele>695</ele>
        <time>2012-04-07T13:39:34Z</time>
      </trkpt>
      <trkpt lat="45.78141" lon="4.64551">
        <ele>696</ele>
        <time>2012-04-07T13:39:38Z</time>
      </trkpt>
      <trkpt lat="45.78168" lon="4.6457">
        <ele>697</ele>
        <time>2012-04-07T13:39:42Z</time>
      </trkpt>
      <trkpt lat="45.78189" lon="4.64588">
        <ele>697</ele>
        <time>2012-04-07T13:39:46Z</time>
      </trkpt>
      <trkpt lat="45.78201" lon="4.64599">
        <ele>697</ele>
        <time>2012-04-07T13:39:56Z</time>
      </trkpt>
      <trkpt lat="45.78209" lon="4.64606">
        <ele>696</ele>
        <time>2012-04-07T13:40:03Z</time>
      </trkpt>
      <trkpt lat="45.78218" lon="4.64613">
        <ele>696</ele>
        <time>2012-04-07T13:40:08Z</time>
      </trkpt>
      <trkpt lat="45.78228" lon="4.64622">
        <ele>696</ele>
        <time>2012-04-07T13:40:13Z</time>
      </trkpt>
      <trkpt lat="45.78248" lon="4.64644">
        <ele>696</ele>
        <time>2012-04-07T13:40:22Z</time>
      </trkpt>
      <trkpt lat="45.78256" lon="4.64653">
        <ele>697</ele>
        <time>2012-04-07T13:40:25Z</time>
      </trkpt>
      <trkpt lat="45.78271" lon="4.64671">
        <ele>697</ele>
        <time>2012-04-07T13:40:29Z</time>
      </trkpt>
      <trkpt lat="45.78299" lon="4.64706">
        <ele>698</ele>
        <time>2012-04-07T13:40:34Z</time>
      </trkpt>
      <trkpt lat="45.78323" lon="4.64738">
        <ele>697</ele>
        <time>2012-04-07T13:40:38Z</time>
      </trkpt>
      <trkpt lat="45.7834" lon="4.64769">
        <ele>697</ele>
        <time>2012-04-07T13:40:42Z</time>
      </trkpt>
      <trkpt lat="45.78349" lon="4.64793">
        <ele>698</ele>
        <time>2012-04-07T13:40:46Z</time>
      </trkpt>
      <trkpt lat="45.78352" lon="4.64806">
        <ele>698</ele>
        <time>2012-04-07T13:40:49Z</time>
      </trkpt>
      <trkpt lat="45.78359" lon="4.64847">
        <ele>699</ele>
        <time>2012-04-07T13:40:55Z</time>
      </trkpt>
      <trkpt lat="45.78359" lon="4.64868">
        <ele>699</ele>
        <time>2012-04-07T13:40:59Z</time>
      </trkpt>
      <trkpt lat="45.78359" lon="4.64868">
        <ele>595.6</ele>
        <time>2012-04-07T13:41:10Z</time>
      </trkpt>
      <trkpt lat="45.78359" lon="4.64868">
        <ele>595.6</ele>
        <time>2012-04-07T13:41:12Z</time>
      </trkpt>
      <trkpt lat="45.78367" lon="4.64911">
        <ele>698</ele>
        <time>2012-04-07T13:41:20Z</time>
      </trkpt>
      <trkpt lat="45.78369" lon="4.64924">
        <ele>698</ele>
        <time>2012-04-07T13:41:24Z</time>
      </trkpt>
      <trkpt lat="45.78373" lon="4.64946">
        <ele>697</ele>
        <time>2012-04-07T13:41:28Z</time>
      </trkpt>
      <trkpt lat="45.78385" lon="4.64966">
        <ele>696</ele>
        <time>2012-04-07T13:41:32Z</time>
      </trkpt>
      <trkpt lat="45.78397" lon="4.64979">
        <ele>696</ele>
        <time>2012-04-07T13:41:36Z</time>
      </trkpt>
      <trkpt lat="45.78414" lon="4.64986">
        <ele>694</ele>
        <time>2012-04-07T13:41:40Z</time>
      </trkpt>
      <trkpt lat="45.78434" lon="4.64994">
        <ele>692</ele>
        <time>2012-04-07T13:41:44Z</time>
      </trkpt>
      <trkpt lat="45.78455" lon="4.65003">
        <ele>690</ele>
        <time>2012-04-07T13:41:48Z</time>
      </trkpt>
      <trkpt lat="45.78464" lon="4.65007">
        <ele>690</ele>
        <time>2012-04-07T13:41:50Z</time>
      </trkpt>
      <trkpt lat="45.78484" lon="4.65004">
        <ele>690</ele>
        <time>2012-04-07T13:41:56Z</time>
      </trkpt>
      <trkpt lat="45.7849" lon="4.65001">
        <ele>689</ele>
        <time>2012-04-07T13:41:58Z</time>
      </trkpt>
      <trkpt lat="45.78506" lon="4.64992">
        <ele>689</ele>
        <time>2012-04-07T13:42:04Z</time>
      </trkpt>
      <trkpt lat="45.78514" lon="4.64987">
        <ele>689</ele>
        <time>2012-04-07T13:42:07Z</time>
      </trkpt>
      <trkpt lat="45.78532" lon="4.64987">
        <ele>689</ele>
        <time>2012-04-07T13:42:13Z</time>
      </trkpt>
      <trkpt lat="45.7854" lon="4.64992">
        <ele>689</ele>
        <time>2012-04-07T13:42:15Z</time>
      </trkpt>
      <trkpt lat="45.78568" lon="4.65012">
        <ele>686</ele>
        <time>2012-04-07T13:42:21Z</time>
      </trkpt>
      <trkpt lat="45.78586" lon="4.65026">
        <ele>685</ele>
        <time>2012-04-07T13:42:25Z</time>
      </trkpt>
      <trkpt lat="45.78601" lon="4.65037">
        <ele>683</ele>
        <time>2012-04-07T13:42:29Z</time>
      </trkpt>
      <trkpt lat="45.78618" lon="4.65037">
        <ele>682</ele>
        <time>2012-04-07T13:42:33Z</time>
      </trkpt>
      <trkpt lat="45.78635" lon="4.65038">
        <ele>682</ele>
        <time>2012-04-07T13:42:37Z</time>
      </trkpt>
      <trkpt lat="45.78643" lon="4.65037">
        <ele>682</ele>
        <time>2012-04-07T13:42:39Z</time>
      </trkpt>
      <trkpt lat="45.78663" lon="4.65035">
        <ele>682</ele>
        <time>2012-04-07T13:42:45Z</time>
      </trkpt>
      <trkpt lat="45.78683" lon="4.65038">
        <ele>682</ele>
        <time>2012-04-07T13:42:51Z</time>
      </trkpt>
      <trkpt lat="45.78694" lon="4.65037">
        <ele>683</ele>
        <time>2012-04-07T13:42:55Z</time>
      </trkpt>
      <trkpt lat="45.78702" lon="4.65033">
        <ele>683</ele>
        <time>2012-04-07T13:42:59Z</time>
      </trkpt>
      <trkpt lat="45.78725" lon="4.65039">
        <ele>681</ele>
        <time>2012-04-07T13:43:05Z</time>
      </trkpt>
      <trkpt lat="45.78733" lon="4.65045">
        <ele>680</ele>
        <time>2012-04-07T13:43:07Z</time>
      </trkpt>
      <trkpt lat="45.78756" lon="4.65052">
        <ele>679</ele>
        <time>2012-04-07T13:43:16Z</time>
      </trkpt>
      <trkpt lat="45.78769" lon="4.65064">
        <ele>679</ele>
        <time>2012-04-07T13:43:21Z</time>
      </trkpt>
      <trkpt lat="45.78774" lon="4.65074">
        <ele>679</ele>
        <time>2012-04-07T13:43:23Z</time>
      </trkpt>
      <trkpt lat="45.7879" lon="4.65107">
        <ele>678</ele>
        <time>2012-04-07T13:43:29Z</time>
      </trkpt>
      <trkpt lat="45.78806" lon="4.65127">
        <ele>679</ele>
        <time>2012-04-07T13:43:33Z</time>
      </trkpt>
      <trkpt lat="45.78822" lon="4.65148">
        <ele>680</ele>
        <time>2012-04-07T13:43:37Z</time>
      </trkpt>
      <trkpt lat="45.78829" lon="4.65157">
        <ele>679</ele>
        <time>2012-04-07T13:43:39Z</time>
      </trkpt>
      <trkpt lat="45.78851" lon="4.65179">
        <ele>678</ele>
        <time>2012-04-07T13:43:44Z</time>
      </trkpt>
      <trkpt lat="45.78865" lon="4.6519">
        <ele>677</ele>
        <time>2012-04-07T13:43:49Z</time>
      </trkpt>
      <trkpt lat="45.78871" lon="4.65219">
        <ele>677</ele>
        <time>2012-04-07T13:43:59Z</time>
      </trkpt>
      <trkpt lat="45.78871" lon="4.65235">
        <ele>677</ele>
        <time>2012-04-07T13:44:03Z</time>
      </trkpt>
      <trkpt lat="45.78863" lon="4.65238">
        <ele>676</ele>
        <time>2012-04-07T13:44:07Z</time>
      </trkpt>
      <trkpt lat="45.78856" lon="4.65239">
        <ele>675</ele>
        <time>2012-04-07T13:44:11Z</time>
      </trkpt>
      <trkpt lat="45.78849" lon="4.65241">
        <ele>673</ele>
        <time>2012-04-07T13:44:15Z</time>
      </trkpt>
      <trkpt lat="45.78833" lon="4.65244">
        <ele>671</ele>
        <time>2012-04-07T13:44:23Z</time>
      </trkpt>
      <trkpt lat="45.78807" lon="4.65244">
        <ele>669</ele>
        <time>2012-04-07T13:44:33Z</time>
      </trkpt>
      <trkpt lat="45.78791" lon="4.65247">
        <ele>666</ele>
        <time>2012-04-07T13:44:37Z</time>
      </trkpt>
      <trkpt lat="45.78774" lon="4.65251">
        <ele>662</ele>
        <time>2012-04-07T13:44:41Z</time>
      </trkpt>
      <trkpt lat="45.78755" lon="4.65252">
        <ele>660</ele>
        <time>2012-04-07T13:44:45Z</time>
      </trkpt>
      <trkpt lat="45.78733" lon="4.65251">
        <ele>651</ele>
        <time>2012-04-07T13:44:49Z</time>
      </trkpt>
      <trkpt lat="45.78724" lon="4.65252">
        <ele>640</ele>
        <time>2012-04-07T13:44:51Z</time>
      </trkpt>
      <trkpt lat="45.78724" lon="4.65252">
        <ele>505.7</ele>
        <time>2012-04-07T13:45:02Z</time>
      </trkpt>
      <trkpt lat="45.78724" lon="4.65252">
        <ele>505.7</ele>
        <time>2012-04-07T13:45:17Z</time>
      </trkpt>
      <trkpt lat="45.78692" lon="4.65265">
        <ele>635</ele>
        <time>2012-04-07T13:45:23Z</time>
      </trkpt>
      <trkpt lat="45.7868" lon="4.65258">
        <ele>635</ele>
        <time>2012-04-07T13:45:27Z</time>
      </trkpt>
      <trkpt lat="45.78664" lon="4.65254">
        <ele>635</ele>
        <time>2012-04-07T13:45:32Z</time>
      </trkpt>
      <trkpt lat="45.78664" lon="4.65254">
        <ele>505.1</ele>
        <time>2012-04-07T13:45:43Z</time>
      </trkpt>
      <trkpt lat="45.78664" lon="4.65254">
        <ele>505.1</ele>
        <time>2012-04-07T13:45:46Z</time>
      </trkpt>
      <trkpt lat="45.78649" lon="4.65293">
        <ele>639</ele>
        <time>2012-04-07T13:45:48Z</time>
      </trkpt>
      <trkpt lat="45.78646" lon="4.65328">
        <ele>643</ele>
        <time>2012-04-07T13:45:59Z</time>
      </trkpt>
      <trkpt lat="45.78645" lon="4.65341">
        <ele>645</ele>
        <time>2012-04-07T13:46:03Z</time>
      </trkpt>
      <trkpt lat="45.78645" lon="4.65355">
        <ele>646</ele>
        <time>2012-04-07T13:46:07Z</time>
      </trkpt>
      <trkpt lat="45.78647" lon="4.65385">
        <ele>649</ele>
        <time>2012-04-07T13:46:14Z</time>
      </trkpt>
      <trkpt lat="45.78648" lon="4.65401">
        <ele>651</ele>
        <time>2012-04-07T13:46:18Z</time>
      </trkpt>
      <trkpt lat="45.78648" lon="4.65401">
        <ele>489.2</ele>
        <time>2012-04-07T13:46:29Z</time>
      </trkpt>
      <trkpt lat="45.78648" lon="4.65401">
        <ele>489.2</ele>
        <time>2012-04-07T13:47:07Z</time>
      </trkpt>
      <trkpt lat="45.78652" lon="4.65443">
        <ele>648</ele>
        <time>2012-04-07T13:47:14Z</time>
      </trkpt>
      <trkpt lat="45.78652" lon="4.65443">
        <ele>487.8</ele>
        <time>2012-04-07T13:47:25Z</time>
      </trkpt>
      <trkpt lat="45.78652" lon="4.65443">
        <ele>487.8</ele>
        <time>2012-04-07T13:47:29Z</time>
      </trkpt>
      <trkpt lat="45.78641" lon="4.6548">
        <ele>644</ele>
        <time>2012-04-07T13:47:36Z</time>
      </trkpt>
      <trkpt lat="45.78633" lon="4.65487">
        <ele>644</ele>
        <time>2012-04-07T13:47:42Z</time>
      </trkpt>
      <trkpt lat="45.78626" lon="4.65497">
        <ele>643</ele>
        <time>2012-04-07T13:47:48Z</time>
      </trkpt>
      <trkpt lat="45.78617" lon="4.65514">
        <ele>642</ele>
        <time>2012-04-07T13:47:56Z</time>
      </trkpt>
      <trkpt lat="45.7861" lon="4.65521">
        <ele>641</ele>
        <time>2012-04-07T13:48:01Z</time>
      </trkpt>
      <trkpt lat="45.78605" lon="4.65526">
        <ele>641</ele>
        <time>2012-04-07T13:48:03Z</time>
      </trkpt>
      <trkpt lat="45.7859" lon="4.65539">
        <ele>640</ele>
        <time>2012-04-07T13:48:08Z</time>
      </trkpt>
      <trkpt lat="45.78583" lon="4.65545">
        <ele>640</ele>
        <time>2012-04-07T13:48:10Z</time>
      </trkpt>
      <trkpt lat="45.78574" lon="4.65575">
        <ele>640</ele>
        <time>2012-04-07T13:48:16Z</time>
      </trkpt>
      <trkpt lat="45.78573" lon="4.65585">
        <ele>639</ele>
        <time>2012-04-07T13:48:18Z</time>
      </trkpt>
      <trkpt lat="45.78565" lon="4.65612">
        <ele>636</ele>
        <time>2012-04-07T13:48:28Z</time>
      </trkpt>
      <trkpt lat="45.78558" lon="4.65644">
        <ele>633</ele>
        <time>2012-04-07T13:48:37Z</time>
      </trkpt>
      <trkpt lat="45.78551" lon="4.65669">
        <ele>625</ele>
        <time>2012-04-07T13:48:41Z</time>
      </trkpt>
      <trkpt lat="45.78548" lon="4.65681">
        <ele>624</ele>
        <time>2012-04-07T13:48:43Z</time>
      </trkpt>
      <trkpt lat="45.7854" lon="4.65712">
        <ele>624</ele>
        <time>2012-04-07T13:48:49Z</time>
      </trkpt>
      <trkpt lat="45.78537" lon="4.65722">
        <ele>624</ele>
        <time>2012-04-07T13:48:51Z</time>
      </trkpt>
      <trkpt lat="45.78531" lon="4.6574">
        <ele>624</ele>
        <time>2012-04-07T13:48:55Z</time>
      </trkpt>
      <trkpt lat="45.7852" lon="4.65773">
        <ele>624</ele>
        <time>2012-04-07T13:49:05Z</time>
      </trkpt>
      <trkpt lat="45.78514" lon="4.65783">
        <ele>625</ele>
        <time>2012-04-07T13:49:09Z</time>
      </trkpt>
      <trkpt lat="45.78514" lon="4.65814">
        <ele>625</ele>
        <time>2012-04-07T13:49:17Z</time>
      </trkpt>
      <trkpt lat="45.78518" lon="4.65824">
        <ele>624</ele>
        <time>2012-04-07T13:49:20Z</time>
      </trkpt>
      <trkpt lat="45.78523" lon="4.65854">
        <ele>622</ele>
        <time>2012-04-07T13:49:25Z</time>
      </trkpt>
      <trkpt lat="45.78512" lon="4.6589">
        <ele>620</ele>
        <time>2012-04-07T13:49:29Z</time>
      </trkpt>
      <trkpt lat="45.78487" lon="4.65902">
        <ele>614</ele>
        <time>2012-04-07T13:49:33Z</time>
      </trkpt>
      <trkpt lat="45.78468" lon="4.65898">
        <ele>613</ele>
        <time>2012-04-07T13:49:37Z</time>
      </trkpt>
      <trkpt lat="45.78446" lon="4.65892">
        <ele>609</ele>
        <time>2012-04-07T13:49:41Z</time>
      </trkpt>
      <trkpt lat="45.78437" lon="4.6589">
        <ele>608</ele>
        <time>2012-04-07T13:49:43Z</time>
      </trkpt>
      <trkpt lat="45.78419" lon="4.65901">
        <ele>608</ele>
        <time>2012-04-07T13:49:49Z</time>
      </trkpt>
      <trkpt lat="45.78409" lon="4.6592">
        <ele>608</ele>
        <time>2012-04-07T13:49:53Z</time>
      </trkpt>
      <trkpt lat="45.78406" lon="4.65945">
        <ele>608</ele>
        <time>2012-04-07T13:49:57Z</time>
      </trkpt>
      <trkpt lat="45.78405" lon="4.65961">
        <ele>608</ele>
        <time>2012-04-07T13:49:59Z</time>
      </trkpt>
      <trkpt lat="45.78404" lon="4.65994">
        <ele>608</ele>
        <time>2012-04-07T13:50:03Z</time>
      </trkpt>
      <trkpt lat="45.78405" lon="4.66018">
        <ele>608</ele>
        <time>2012-04-07T13:50:07Z</time>
      </trkpt>
      <trkpt lat="45.78406" lon="4.66048">
        <ele>608</ele>
        <time>2012-04-07T13:50:13Z</time>
      </trkpt>
      <trkpt lat="45.78406" lon="4.66058">
        <ele>608</ele>
        <time>2012-04-07T13:50:15Z</time>
      </trkpt>
      <trkpt lat="45.78409" lon="4.66096">
        <ele>607</ele>
        <time>2012-04-07T13:50:21Z</time>
      </trkpt>
      <trkpt lat="45.78415" lon="4.66152">
        <ele>605</ele>
        <time>2012-04-07T13:50:29Z</time>
      </trkpt>
      <trkpt lat="45.78416" lon="4.66185">
        <ele>596</ele>
        <time>2012-04-07T13:50:33Z</time>
      </trkpt>
      <trkpt lat="45.78413" lon="4.66212">
        <ele>590</ele>
        <time>2012-04-07T13:50:36Z</time>
      </trkpt>
      <trkpt lat="45.78395" lon="4.66249">
        <ele>585</ele>
        <time>2012-04-07T13:50:41Z</time>
      </trkpt>
      <trkpt lat="45.78378" lon="4.66272">
        <ele>582</ele>
        <time>2012-04-07T13:50:44Z</time>
      </trkpt>
      <trkpt lat="45.78347" lon="4.66306">
        <ele>578</ele>
        <time>2012-04-07T13:50:49Z</time>
      </trkpt>
      <trkpt lat="45.78334" lon="4.66318">
        <ele>577</ele>
        <time>2012-04-07T13:50:51Z</time>
      </trkpt>
      <trkpt lat="45.78311" lon="4.66344">
        <ele>575</ele>
        <time>2012-04-07T13:50:57Z</time>
      </trkpt>
      <trkpt lat="45.78309" lon="4.66372">
        <ele>572</ele>
        <time>2012-04-07T13:51:01Z</time>
      </trkpt>
      <trkpt lat="45.78306" lon="4.66414">
        <ele>565</ele>
        <time>2012-04-07T13:51:05Z</time>
      </trkpt>
      <trkpt lat="45.78295" lon="4.66433">
        <ele>560</ele>
        <time>2012-04-07T13:51:08Z</time>
      </trkpt>
      <trkpt lat="45.78285" lon="4.66479">
        <ele>553</ele>
        <time>2012-04-07T13:51:13Z</time>
      </trkpt>
      <trkpt lat="45.78287" lon="4.66519">
        <ele>548</ele>
        <time>2012-04-07T13:51:17Z</time>
      </trkpt>
      <trkpt lat="45.78291" lon="4.66566">
        <ele>541</ele>
        <time>2012-04-07T13:51:21Z</time>
      </trkpt>
      <trkpt lat="45.78294" lon="4.666">
        <ele>531</ele>
        <time>2012-04-07T13:51:24Z</time>
      </trkpt>
      <trkpt lat="45.783" lon="4.66621">
        <ele>521</ele>
        <time>2012-04-07T13:51:28Z</time>
      </trkpt>
      <trkpt lat="45.78307" lon="4.66629">
        <ele>514</ele>
        <time>2012-04-07T13:51:31Z</time>
      </trkpt>
      <trkpt lat="45.78298" lon="4.66651">
        <ele>501</ele>
        <time>2012-04-07T13:51:36Z</time>
      </trkpt>
      <trkpt lat="45.78295" lon="4.66674">
        <ele>500</ele>
        <time>2012-04-07T13:51:44Z</time>
      </trkpt>
      <trkpt lat="45.78279" lon="4.66681">
        <ele>498</ele>
        <time>2012-04-07T13:51:52Z</time>
      </trkpt>
      <trkpt lat="45.78265" lon="4.66669">
        <ele>498</ele>
        <time>2012-04-07T13:51:56Z</time>
      </trkpt>
      <trkpt lat="45.78252" lon="4.6665">
        <ele>492</ele>
        <time>2012-04-07T13:52:00Z</time>
      </trkpt>
      <trkpt lat="45.78241" lon="4.6663">
        <ele>488</ele>
        <time>2012-04-07T13:52:04Z</time>
      </trkpt>
      <trkpt lat="45.78229" lon="4.66605">
        <ele>485</ele>
        <time>2012-04-07T13:52:08Z</time>
      </trkpt>
      <trkpt lat="45.78214" lon="4.66581">
        <ele>482</ele>
        <time>2012-04-07T13:52:12Z</time>
      </trkpt>
      <trkpt lat="45.78198" lon="4.66571">
        <ele>479</ele>
        <time>2012-04-07T13:52:16Z</time>
      </trkpt>
      <trkpt lat="45.78183" lon="4.6658">
        <ele>479</ele>
        <time>2012-04-07T13:52:21Z</time>
      </trkpt>
      <trkpt lat="45.78177" lon="4.66586">
        <ele>478</ele>
        <time>2012-04-07T13:52:25Z</time>
      </trkpt>
      <trkpt lat="45.78177" lon="4.66586">
        <ele>404</ele>
        <time>2012-04-07T13:52:37Z</time>
      </trkpt>
      <trkpt lat="45.78177" lon="4.66586">
        <ele>404</ele>
        <time>2012-04-07T13:52:44Z</time>
      </trkpt>
      <trkpt lat="45.7816" lon="4.66634">
        <ele>476</ele>
        <time>2012-04-07T13:52:50Z</time>
      </trkpt>
      <trkpt lat="45.7816" lon="4.66634">
        <ele>407.4</ele>
        <time>2012-04-07T13:53:01Z</time>
      </trkpt>
      <trkpt lat="45.7816" lon="4.66634">
        <ele>407.4</ele>
        <time>2012-04-07T13:53:04Z</time>
      </trkpt>
      <trkpt lat="45.78153" lon="4.6667">
        <ele>473</ele>
        <time>2012-04-07T13:53:09Z</time>
      </trkpt>
      <trkpt lat="45.78152" lon="4.66679">
        <ele>473</ele>
        <time>2012-04-07T13:53:13Z</time>
      </trkpt>
      <trkpt lat="45.78151" lon="4.66688">
        <ele>473</ele>
        <time>2012-04-07T13:53:17Z</time>
      </trkpt>
      <trkpt lat="45.78151" lon="4.66688">
        <ele>410.4</ele>
        <time>2012-04-07T13:53:28Z</time>
      </trkpt>
      <trkpt lat="45.78151" lon="4.66688">
        <ele>410.4</ele>
        <time>2012-04-07T13:53:45Z</time>
      </trkpt>
      <trkpt lat="45.78142" lon="4.66756">
        <ele>470</ele>
        <time>2012-04-07T13:53:50Z</time>
      </trkpt>
      <trkpt lat="45.78142" lon="4.66756">
        <ele>414.5</ele>
        <time>2012-04-07T13:54:01Z</time>
      </trkpt>
      <trkpt lat="45.78142" lon="4.66756">
        <ele>414.5</ele>
        <time>2012-04-07T13:54:08Z</time>
      </trkpt>
      <trkpt lat="45.78136" lon="4.66815">
        <ele>469</ele>
        <time>2012-04-07T13:54:16Z</time>
      </trkpt>
      <trkpt lat="45.78125" lon="4.66838">
        <ele>469</ele>
        <time>2012-04-07T13:54:28Z</time>
      </trkpt>
      <trkpt lat="45.78117" lon="4.66845">
        <ele>469</ele>
        <time>2012-04-07T13:54:32Z</time>
      </trkpt>
      <trkpt lat="45.78111" lon="4.66851">
        <ele>469</ele>
        <time>2012-04-07T13:54:35Z</time>
      </trkpt>
      <trkpt lat="45.78104" lon="4.66857">
        <ele>469</ele>
        <time>2012-04-07T13:54:38Z</time>
      </trkpt>
      <trkpt lat="45.78095" lon="4.66865">
        <ele>469</ele>
        <time>2012-04-07T13:54:43Z</time>
      </trkpt>
      <trkpt lat="45.78088" lon="4.66869">
        <ele>469</ele>
        <time>2012-04-07T13:54:47Z</time>
      </trkpt>
      <trkpt lat="45.78082" lon="4.66871">
        <ele>469</ele>
        <time>2012-04-07T13:54:50Z</time>
      </trkpt>
      <trkpt lat="45.78074" lon="4.66873">
        <ele>470</ele>
        <time>2012-04-07T13:54:54Z</time>
      </trkpt>
      <trkpt lat="45.78066" lon="4.66873">
        <ele>470</ele>
        <time>2012-04-07T13:54:58Z</time>
      </trkpt>
      <trkpt lat="45.7806" lon="4.6687">
        <ele>470</ele>
        <time>2012-04-07T13:55:02Z</time>
      </trkpt>
      <trkpt lat="45.78052" lon="4.66869">
        <ele>471</ele>
        <time>2012-04-07T13:55:07Z</time>
      </trkpt>
      <trkpt lat="45.78045" lon="4.66868">
        <ele>471</ele>
        <time>2012-04-07T13:55:11Z</time>
      </trkpt>
      <trkpt lat="45.78038" lon="4.66865">
        <ele>472</ele>
        <time>2012-04-07T13:55:15Z</time>
      </trkpt>
      <trkpt lat="45.78032" lon="4.66863">
        <ele>472</ele>
        <time>2012-04-07T13:55:18Z</time>
      </trkpt>
      <trkpt lat="45.78025" lon="4.66861">
        <ele>472</ele>
        <time>2012-04-07T13:55:21Z</time>
      </trkpt>
      <trkpt lat="45.78011" lon="4.66856">
        <ele>473</ele>
        <time>2012-04-07T13:55:28Z</time>
      </trkpt>
      <trkpt lat="45.78005" lon="4.66853">
        <ele>473</ele>
        <time>2012-04-07T13:55:31Z</time>
      </trkpt>
      <trkpt lat="45.77998" lon="4.66851">
        <ele>473</ele>
        <time>2012-04-07T13:55:34Z</time>
      </trkpt>
      <trkpt lat="45.77984" lon="4.66846">
        <ele>473</ele>
        <time>2012-04-07T13:55:40Z</time>
      </trkpt>
      <trkpt lat="45.77971" lon="4.66842">
        <ele>473</ele>
        <time>2012-04-07T13:55:46Z</time>
      </trkpt>
      <trkpt lat="45.77957" lon="4.6684">
        <ele>474</ele>
        <time>2012-04-07T13:55:52Z</time>
      </trkpt>
      <trkpt lat="45.7795" lon="4.66839">
        <ele>474</ele>
        <time>2012-04-07T13:55:55Z</time>
      </trkpt>
      <trkpt lat="45.77943" lon="4.66839">
        <ele>474</ele>
        <time>2012-04-07T13:55:58Z</time>
      </trkpt>
      <trkpt lat="45.7793" lon="4.66839">
        <ele>474</ele>
        <time>2012-04-07T13:56:04Z</time>
      </trkpt>
      <trkpt lat="45.77921" lon="4.66839">
        <ele>474</ele>
        <time>2012-04-07T13:56:08Z</time>
      </trkpt>
      <trkpt lat="45.77913" lon="4.66839">
        <ele>475</ele>
        <time>2012-04-07T13:56:12Z</time>
      </trkpt>
      <trkpt lat="45.77906" lon="4.66839">
        <ele>475</ele>
        <time>2012-04-07T13:56:15Z</time>
      </trkpt>
      <trkpt lat="45.77899" lon="4.6684">
        <ele>475</ele>
        <time>2012-04-07T13:56:18Z</time>
      </trkpt>
      <trkpt lat="45.77885" lon="4.6684">
        <ele>475</ele>
        <time>2012-04-07T13:56:24Z</time>
      </trkpt>
      <trkpt lat="45.77878" lon="4.6684">
        <ele>476</ele>
        <time>2012-04-07T13:56:27Z</time>
      </trkpt>
      <trkpt lat="45.77871" lon="4.66841">
        <ele>476</ele>
        <time>2012-04-07T13:56:30Z</time>
      </trkpt>
      <trkpt lat="45.77856" lon="4.66845">
        <ele>476</ele>
        <time>2012-04-07T13:56:36Z</time>
      </trkpt>
      <trkpt lat="45.77849" lon="4.66847">
        <ele>476</ele>
        <time>2012-04-07T13:56:39Z</time>
      </trkpt>
      <trkpt lat="45.77842" lon="4.66848">
        <ele>477</ele>
        <time>2012-04-07T13:56:42Z</time>
      </trkpt>
      <trkpt lat="45.77828" lon="4.66853">
        <ele>477</ele>
        <time>2012-04-07T13:56:48Z</time>
      </trkpt>
      <trkpt lat="45.77821" lon="4.66855">
        <ele>477</ele>
        <time>2012-04-07T13:56:51Z</time>
      </trkpt>
      <trkpt lat="45.77814" lon="4.66855">
        <ele>478</ele>
        <time>2012-04-07T13:56:54Z</time>
      </trkpt>
      <trkpt lat="45.77803" lon="4.66845">
        <ele>478</ele>
        <time>2012-04-07T13:57:00Z</time>
      </trkpt>
      <trkpt lat="45.77798" lon="4.66839">
        <ele>478</ele>
        <time>2012-04-07T13:57:03Z</time>
      </trkpt>
      <trkpt lat="45.77795" lon="4.66831">
        <ele>478</ele>
        <time>2012-04-07T13:57:06Z</time>
      </trkpt>
      <trkpt lat="45.77788" lon="4.66813">
        <ele>479</ele>
        <time>2012-04-07T13:57:12Z</time>
      </trkpt>
      <trkpt lat="45.77785" lon="4.66805">
        <ele>479</ele>
        <time>2012-04-07T13:57:15Z</time>
      </trkpt>
      <trkpt lat="45.77782" lon="4.66797">
        <ele>479</ele>
        <time>2012-04-07T13:57:18Z</time>
      </trkpt>
      <trkpt lat="45.77778" lon="4.66786">
        <ele>479</ele>
        <time>2012-04-07T13:57:22Z</time>
      </trkpt>
      <trkpt lat="45.77775" lon="4.66778">
        <ele>480</ele>
        <time>2012-04-07T13:57:25Z</time>
      </trkpt>
      <trkpt lat="45.77768" lon="4.6676">
        <ele>480</ele>
        <time>2012-04-07T13:57:32Z</time>
      </trkpt>
      <trkpt lat="45.77764" lon="4.6675">
        <ele>481</ele>
        <time>2012-04-07T13:57:36Z</time>
      </trkpt>
      <trkpt lat="45.7776" lon="4.66742">
        <ele>481</ele>
        <time>2012-04-07T13:57:39Z</time>
      </trkpt>
      <trkpt lat="45.77757" lon="4.66733">
        <ele>481</ele>
        <time>2012-04-07T13:57:42Z</time>
      </trkpt>
      <trkpt lat="45.7775" lon="4.66716">
        <ele>481</ele>
        <time>2012-04-07T13:57:48Z</time>
      </trkpt>
      <trkpt lat="45.77748" lon="4.66707">
        <ele>482</ele>
        <time>2012-04-07T13:57:51Z</time>
      </trkpt>
      <trkpt lat="45.77746" lon="4.66698">
        <ele>482</ele>
        <time>2012-04-07T13:57:54Z</time>
      </trkpt>
      <trkpt lat="45.7774" lon="4.66679">
        <ele>482</ele>
        <time>2012-04-07T13:58:00Z</time>
      </trkpt>
      <trkpt lat="45.77734" lon="4.66657">
        <ele>483</ele>
        <time>2012-04-07T13:58:06Z</time>
      </trkpt>
      <trkpt lat="45.77728" lon="4.66635">
        <ele>483</ele>
        <time>2012-04-07T13:58:12Z</time>
      </trkpt>
      <trkpt lat="45.77725" lon="4.66623">
        <ele>484</ele>
        <time>2012-04-07T13:58:15Z</time>
      </trkpt>
      <trkpt lat="45.77722" lon="4.66612">
        <ele>484</ele>
        <time>2012-04-07T13:58:18Z</time>
      </trkpt>
      <trkpt lat="45.77716" lon="4.66589">
        <ele>484</ele>
        <time>2012-04-07T13:58:24Z</time>
      </trkpt>
      <trkpt lat="45.77713" lon="4.66577">
        <ele>484</ele>
        <time>2012-04-07T13:58:27Z</time>
      </trkpt>
      <trkpt lat="45.77709" lon="4.66565">
        <ele>485</ele>
        <time>2012-04-07T13:58:30Z</time>
      </trkpt>
      <trkpt lat="45.77702" lon="4.66541">
        <ele>485</ele>
        <time>2012-04-07T13:58:36Z</time>
      </trkpt>
      <trkpt lat="45.777" lon="4.66529">
        <ele>485</ele>
        <time>2012-04-07T13:58:39Z</time>
      </trkpt>
      <trkpt lat="45.77696" lon="4.66518">
        <ele>485</ele>
        <time>2012-04-07T13:58:42Z</time>
      </trkpt>
      <trkpt lat="45.7769" lon="4.66496">
        <ele>485</ele>
        <time>2012-04-07T13:58:48Z</time>
      </trkpt>
      <trkpt lat="45.77685" lon="4.66475">
        <ele>486</ele>
        <time>2012-04-07T13:58:52Z</time>
      </trkpt>
      <trkpt lat="45.7768" lon="4.6645">
        <ele>486</ele>
        <time>2012-04-07T13:58:56Z</time>
      </trkpt>
      <trkpt lat="45.77676" lon="4.66417">
        <ele>486</ele>
        <time>2012-04-07T13:59:00Z</time>
      </trkpt>
      <trkpt lat="45.77677" lon="4.66379">
        <ele>485</ele>
        <time>2012-04-07T13:59:04Z</time>
      </trkpt>
      <trkpt lat="45.7768" lon="4.66339">
        <ele>484</ele>
        <time>2012-04-07T13:59:08Z</time>
      </trkpt>
      <trkpt lat="45.77678" lon="4.66298">
        <ele>484</ele>
        <time>2012-04-07T13:59:12Z</time>
      </trkpt>
      <trkpt lat="45.77669" lon="4.66281">
        <ele>485</ele>
        <time>2012-04-07T13:59:14Z</time>
      </trkpt>
      <trkpt lat="45.77639" lon="4.66265">
        <ele>485</ele>
        <time>2012-04-07T13:59:19Z</time>
      </trkpt>
      <trkpt lat="45.7762" lon="4.66267">
        <ele>486</ele>
        <time>2012-04-07T13:59:23Z</time>
      </trkpt>
      <trkpt lat="45.77603" lon="4.66271">
        <ele>486</ele>
        <time>2012-04-07T13:59:27Z</time>
      </trkpt>
      <trkpt lat="45.77572" lon="4.66284">
        <ele>487</ele>
        <time>2012-04-07T13:59:35Z</time>
      </trkpt>
      <trkpt lat="45.77556" lon="4.66293">
        <ele>488</ele>
        <time>2012-04-07T13:59:39Z</time>
      </trkpt>
      <trkpt lat="45.77521" lon="4.66308">
        <ele>488</ele>
        <time>2012-04-07T13:59:47Z</time>
      </trkpt>
      <trkpt lat="45.77499" lon="4.66312">
        <ele>488</ele>
        <time>2012-04-07T13:59:51Z</time>
      </trkpt>
      <trkpt lat="45.77477" lon="4.66305">
        <ele>488</ele>
        <time>2012-04-07T13:59:55Z</time>
      </trkpt>
      <trkpt lat="45.77449" lon="4.66289">
        <ele>488</ele>
        <time>2012-04-07T14:00:00Z</time>
      </trkpt>
      <trkpt lat="45.77426" lon="4.66269">
        <ele>487</ele>
        <time>2012-04-07T14:00:04Z</time>
      </trkpt>
      <trkpt lat="45.77411" lon="4.6624">
        <ele>487</ele>
        <time>2012-04-07T14:00:08Z</time>
      </trkpt>
      <trkpt lat="45.77401" lon="4.66209">
        <ele>487</ele>
        <time>2012-04-07T14:00:12Z</time>
      </trkpt>
      <trkpt lat="45.77393" lon="4.66181">
        <ele>486</ele>
        <time>2012-04-07T14:00:16Z</time>
      </trkpt>
      <trkpt lat="45.77385" lon="4.66152">
        <ele>485</ele>
        <time>2012-04-07T14:00:20Z</time>
      </trkpt>
      <trkpt lat="45.77379" lon="4.6612">
        <ele>484</ele>
        <time>2012-04-07T14:00:24Z</time>
      </trkpt>
      <trkpt lat="45.77371" lon="4.66088">
        <ele>483</ele>
        <time>2012-04-07T14:00:28Z</time>
      </trkpt>
      <trkpt lat="45.77363" lon="4.66055">
        <ele>482</ele>
        <time>2012-04-07T14:00:32Z</time>
      </trkpt>
      <trkpt lat="45.77355" lon="4.66024">
        <ele>482</ele>
        <time>2012-04-07T14:00:36Z</time>
      </trkpt>
      <trkpt lat="45.77347" lon="4.65992">
        <ele>481</ele>
        <time>2012-04-07T14:00:40Z</time>
      </trkpt>
      <trkpt lat="45.7733" lon="4.65969">
        <ele>481</ele>
        <time>2012-04-07T14:00:44Z</time>
      </trkpt>
      <trkpt lat="45.77308" lon="4.65965">
        <ele>479</ele>
        <time>2012-04-07T14:00:48Z</time>
      </trkpt>
      <trkpt lat="45.77282" lon="4.65973">
        <ele>479</ele>
        <time>2012-04-07T14:00:52Z</time>
      </trkpt>
      <trkpt lat="45.77252" lon="4.65985">
        <ele>479</ele>
        <time>2012-04-07T14:00:56Z</time>
      </trkpt>
      <trkpt lat="45.77222" lon="4.65996">
        <ele>479</ele>
        <time>2012-04-07T14:01:00Z</time>
      </trkpt>
      <trkpt lat="45.77192" lon="4.65974">
        <ele>478</ele>
        <time>2012-04-07T14:01:04Z</time>
      </trkpt>
      <trkpt lat="45.77169" lon="4.65933">
        <ele>476</ele>
        <time>2012-04-07T14:01:08Z</time>
      </trkpt>
      <trkpt lat="45.7715" lon="4.65883">
        <ele>475</ele>
        <time>2012-04-07T14:01:12Z</time>
      </trkpt>
      <trkpt lat="45.77141" lon="4.65828">
        <ele>473</ele>
        <time>2012-04-07T14:01:16Z</time>
      </trkpt>
      <trkpt lat="45.77122" lon="4.65787">
        <ele>472</ele>
        <time>2012-04-07T14:01:20Z</time>
      </trkpt>
      <trkpt lat="45.77103" lon="4.65781">
        <ele>472</ele>
        <time>2012-04-07T14:01:22Z</time>
      </trkpt>
      <trkpt lat="45.77075" lon="4.65854">
        <ele>471</ele>
        <time>2012-04-07T14:01:28Z</time>
      </trkpt>
      <trkpt lat="45.77072" lon="4.65915">
        <ele>469</ele>
        <time>2012-04-07T14:01:32Z</time>
      </trkpt>
      <trkpt lat="45.77072" lon="4.6595">
        <ele>469</ele>
        <time>2012-04-07T14:01:35Z</time>
      </trkpt>
      <trkpt lat="45.77075" lon="4.6599">
        <ele>469</ele>
        <time>2012-04-07T14:01:40Z</time>
      </trkpt>
      <trkpt lat="45.77075" lon="4.66">
        <ele>469</ele>
        <time>2012-04-07T14:01:42Z</time>
      </trkpt>
      <trkpt lat="45.77076" lon="4.66011">
        <ele>469</ele>
        <time>2012-04-07T14:01:45Z</time>
      </trkpt>
      <trkpt lat="45.77077" lon="4.66023">
        <ele>469</ele>
        <time>2012-04-07T14:01:49Z</time>
      </trkpt>
      <trkpt lat="45.77078" lon="4.66034">
        <ele>469</ele>
        <time>2012-04-07T14:01:53Z</time>
      </trkpt>
      <trkpt lat="45.77078" lon="4.66055">
        <ele>468</ele>
        <time>2012-04-07T14:02:00Z</time>
      </trkpt>
      <trkpt lat="45.77077" lon="4.66065">
        <ele>468</ele>
        <time>2012-04-07T14:02:03Z</time>
      </trkpt>
      <trkpt lat="45.77077" lon="4.66074">
        <ele>467</ele>
        <time>2012-04-07T14:02:06Z</time>
      </trkpt>
      <trkpt lat="45.77076" lon="4.66083">
        <ele>467</ele>
        <time>2012-04-07T14:02:09Z</time>
      </trkpt>
      <trkpt lat="45.77075" lon="4.66094">
        <ele>467</ele>
        <time>2012-04-07T14:02:13Z</time>
      </trkpt>
      <trkpt lat="45.77074" lon="4.66107">
        <ele>466</ele>
        <time>2012-04-07T14:02:18Z</time>
      </trkpt>
      <trkpt lat="45.77074" lon="4.66119">
        <ele>466</ele>
        <time>2012-04-07T14:02:23Z</time>
      </trkpt>
      <trkpt lat="45.77072" lon="4.66133">
        <ele>466</ele>
        <time>2012-04-07T14:02:29Z</time>
      </trkpt>
      <trkpt lat="45.77066" lon="4.66158">
        <ele>465</ele>
        <time>2012-04-07T14:02:39Z</time>
      </trkpt>
      <trkpt lat="45.77062" lon="4.66169">
        <ele>465</ele>
        <time>2012-04-07T14:02:44Z</time>
      </trkpt>
      <trkpt lat="45.77057" lon="4.66181">
        <ele>465</ele>
        <time>2012-04-07T14:02:50Z</time>
      </trkpt>
      <trkpt lat="45.7705" lon="4.66191">
        <ele>465</ele>
        <time>2012-04-07T14:02:56Z</time>
      </trkpt>
      <trkpt lat="45.7705" lon="4.66191">
        <ele>416.7</ele>
        <time>2012-04-07T14:03:07Z</time>
      </trkpt>
      <trkpt lat="45.7705" lon="4.66191">
        <ele>416.7</ele>
        <time>2012-04-07T14:03:12Z</time>
      </trkpt>
      <trkpt lat="45.77017" lon="4.6622">
        <ele>465</ele>
        <time>2012-04-07T14:03:16Z</time>
      </trkpt>
      <trkpt lat="45.77011" lon="4.66224">
        <ele>465</ele>
        <time>2012-04-07T14:03:19Z</time>
      </trkpt>
      <trkpt lat="45.77002" lon="4.66227">
        <ele>465</ele>
        <time>2012-04-07T14:03:23Z</time>
      </trkpt>
      <trkpt lat="45.76975" lon="4.66229">
        <ele>465</ele>
        <time>2012-04-07T14:03:33Z</time>
      </trkpt>
      <trkpt lat="45.76968" lon="4.66226">
        <ele>466</ele>
        <time>2012-04-07T14:03:36Z</time>
      </trkpt>
      <trkpt lat="45.7696" lon="4.66223">
        <ele>466</ele>
        <time>2012-04-07T14:03:39Z</time>
      </trkpt>
      <trkpt lat="45.76947" lon="4.66214">
        <ele>466</ele>
        <time>2012-04-07T14:03:45Z</time>
      </trkpt>
      <trkpt lat="45.76941" lon="4.66207">
        <ele>466</ele>
        <time>2012-04-07T14:03:48Z</time>
      </trkpt>
      <trkpt lat="45.76935" lon="4.66201">
        <ele>466</ele>
        <time>2012-04-07T14:03:51Z</time>
      </trkpt>
      <trkpt lat="45.76923" lon="4.66188">
        <ele>467</ele>
        <time>2012-04-07T14:03:57Z</time>
      </trkpt>
      <trkpt lat="45.76917" lon="4.66183">
        <ele>467</ele>
        <time>2012-04-07T14:04:00Z</time>
      </trkpt>
      <trkpt lat="45.76912" lon="4.66178">
        <ele>467</ele>
        <time>2012-04-07T14:04:03Z</time>
      </trkpt>
      <trkpt lat="45.76902" lon="4.66171">
        <ele>468</ele>
        <time>2012-04-07T14:04:09Z</time>
      </trkpt>
      <trkpt lat="45.76893" lon="4.66166">
        <ele>468</ele>
        <time>2012-04-07T14:04:15Z</time>
      </trkpt>
      <trkpt lat="45.76882" lon="4.66165">
        <ele>468</ele>
        <time>2012-04-07T14:04:22Z</time>
      </trkpt>
      <trkpt lat="45.76882" lon="4.66165">
        <ele>424.4</ele>
        <time>2012-04-07T14:04:33Z</time>
      </trkpt>
      <trkpt lat="45.76882" lon="4.66165">
        <ele>424.4</ele>
        <time>2012-04-07T14:04:34Z</time>
      </trkpt>
      <trkpt lat="45.76848" lon="4.66182">
        <ele>469</ele>
        <time>2012-04-07T14:04:38Z</time>
      </trkpt>
      <trkpt lat="45.76832" lon="4.66192">
        <ele>469</ele>
        <time>2012-04-07T14:04:44Z</time>
      </trkpt>
      <trkpt lat="45.7681" lon="4.66206">
        <ele>470</ele>
        <time>2012-04-07T14:04:50Z</time>
      </trkpt>
      <trkpt lat="45.7679" lon="4.66212">
        <ele>471</ele>
        <time>2012-04-07T14:04:54Z</time>
      </trkpt>
      <trkpt lat="45.76769" lon="4.66218">
        <ele>472</ele>
        <time>2012-04-07T14:04:58Z</time>
      </trkpt>
      <trkpt lat="45.76745" lon="4.66219">
        <ele>472</ele>
        <time>2012-04-07T14:05:02Z</time>
      </trkpt>
      <trkpt lat="45.76729" lon="4.66206">
        <ele>472</ele>
        <time>2012-04-07T14:05:05Z</time>
      </trkpt>
      <trkpt lat="45.76713" lon="4.66181">
        <ele>472</ele>
        <time>2012-04-07T14:05:09Z</time>
      </trkpt>
      <trkpt lat="45.76698" lon="4.66154">
        <ele>472</ele>
        <time>2012-04-07T14:05:13Z</time>
      </trkpt>
      <trkpt lat="45.76684" lon="4.66128">
        <ele>472</ele>
        <time>2012-04-07T14:05:17Z</time>
      </trkpt>
      <trkpt lat="45.76665" lon="4.66109">
        <ele>472</ele>
        <time>2012-04-07T14:05:21Z</time>
      </trkpt>
      <trkpt lat="45.76644" lon="4.661">
        <ele>472</ele>
        <time>2012-04-07T14:05:25Z</time>
      </trkpt>
      <trkpt lat="45.76605" lon="4.6609">
        <ele>472</ele>
        <time>2012-04-07T14:05:33Z</time>
      </trkpt>
      <trkpt lat="45.7659" lon="4.66094">
        <ele>472</ele>
        <time>2012-04-07T14:05:37Z</time>
      </trkpt>
      <trkpt lat="45.76577" lon="4.66106">
        <ele>472</ele>
        <time>2012-04-07T14:05:41Z</time>
      </trkpt>
      <trkpt lat="45.76564" lon="4.66116">
        <ele>473</ele>
        <time>2012-04-07T14:05:46Z</time>
      </trkpt>
      <trkpt lat="45.76564" lon="4.66116">
        <ele>420.1</ele>
        <time>2012-04-07T14:05:57Z</time>
      </trkpt>
      <trkpt lat="45.76564" lon="4.66116">
        <ele>420.1</ele>
        <time>2012-04-07T14:07:07Z</time>
      </trkpt>
      <trkpt lat="45.76546" lon="4.66126">
        <ele>473</ele>
        <time>2012-04-07T14:07:11Z</time>
      </trkpt>
      <trkpt lat="45.76538" lon="4.66127">
        <ele>473</ele>
        <time>2012-04-07T14:07:16Z</time>
      </trkpt>
      <trkpt lat="45.76543" lon="4.66118">
        <ele>473</ele>
        <time>2012-04-07T14:07:22Z</time>
      </trkpt>
      <trkpt lat="45.76553" lon="4.661">
        <ele>473</ele>
        <time>2012-04-07T14:07:28Z</time>
      </trkpt>
      <trkpt lat="45.76554" lon="4.6609">
        <ele>474</ele>
        <time>2012-04-07T14:07:31Z</time>
      </trkpt>
      <trkpt lat="45.76546" lon="4.66089">
        <ele>474</ele>
        <time>2012-04-07T14:07:35Z</time>
      </trkpt>
      <trkpt lat="45.76539" lon="4.6609">
        <ele>474</ele>
        <time>2012-04-07T14:07:39Z</time>
      </trkpt>
      <trkpt lat="45.76529" lon="4.66088">
        <ele>474</ele>
        <time>2012-04-07T14:07:50Z</time>
      </trkpt>
      <trkpt lat="45.76529" lon="4.66088">
        <ele>425.4</ele>
        <time>2012-04-07T14:08:01Z</time>
      </trkpt>
      <trkpt lat="45.76529" lon="4.66088">
        <ele>425.4</ele>
        <time>2012-04-07T14:11:23Z</time>
      </trkpt>
      <trkpt lat="45.76541" lon="4.66098">
        <ele>474</ele>
        <time>2012-04-07T14:11:26Z</time>
      </trkpt>
      <trkpt lat="45.76537" lon="4.66114">
        <ele>474</ele>
        <time>2012-04-07T14:11:33Z</time>
      </trkpt>
      <trkpt lat="45.76531" lon="4.66116">
        <ele>474</ele>
        <time>2012-04-07T14:11:36Z</time>
      </trkpt>
      <trkpt lat="45.76511" lon="4.6611">
        <ele>474</ele>
        <time>2012-04-07T14:11:46Z</time>
      </trkpt>
      <trkpt lat="45.76504" lon="4.66112">
        <ele>474</ele>
        <time>2012-04-07T14:11:52Z</time>
      </trkpt>
      <trkpt lat="45.76498" lon="4.66118">
        <ele>474</ele>
        <time>2012-04-07T14:11:59Z</time>
      </trkpt>
      <trkpt lat="45.76493" lon="4.66125">
        <ele>475</ele>
        <time>2012-04-07T14:12:05Z</time>
      </trkpt>
      <trkpt lat="45.76491" lon="4.66134">
        <ele>475</ele>
        <time>2012-04-07T14:12:09Z</time>
      </trkpt>
      <trkpt lat="45.76488" lon="4.66144">
        <ele>475</ele>
        <time>2012-04-07T14:12:13Z</time>
      </trkpt>
      <trkpt lat="45.76477" lon="4.66187">
        <ele>475</ele>
        <time>2012-04-07T14:12:25Z</time>
      </trkpt>
      <trkpt lat="45.76474" lon="4.66197">
        <ele>475</ele>
        <time>2012-04-07T14:12:27Z</time>
      </trkpt>
      <trkpt lat="45.76466" lon="4.66229">
        <ele>475</ele>
        <time>2012-04-07T14:12:33Z</time>
      </trkpt>
      <trkpt lat="45.7646" lon="4.6625">
        <ele>474</ele>
        <time>2012-04-07T14:12:37Z</time>
      </trkpt>
      <trkpt lat="45.76457" lon="4.6626">
        <ele>474</ele>
        <time>2012-04-07T14:12:39Z</time>
      </trkpt>
      <trkpt lat="45.76448" lon="4.66286">
        <ele>474</ele>
        <time>2012-04-07T14:12:45Z</time>
      </trkpt>
      <trkpt lat="45.76445" lon="4.66295">
        <ele>475</ele>
        <time>2012-04-07T14:12:47Z</time>
      </trkpt>
      <trkpt lat="45.76437" lon="4.66322">
        <ele>475</ele>
        <time>2012-04-07T14:12:53Z</time>
      </trkpt>
      <trkpt lat="45.76427" lon="4.66355">
        <ele>475</ele>
        <time>2012-04-07T14:13:01Z</time>
      </trkpt>
      <trkpt lat="45.76423" lon="4.66367">
        <ele>475</ele>
        <time>2012-04-07T14:13:04Z</time>
      </trkpt>
      <trkpt lat="45.76417" lon="4.6639">
        <ele>475</ele>
        <time>2012-04-07T14:13:10Z</time>
      </trkpt>
      <trkpt lat="45.76411" lon="4.66413">
        <ele>475</ele>
        <time>2012-04-07T14:13:16Z</time>
      </trkpt>
      <trkpt lat="45.76407" lon="4.66425">
        <ele>475</ele>
        <time>2012-04-07T14:13:19Z</time>
      </trkpt>
      <trkpt lat="45.76397" lon="4.66471">
        <ele>474</ele>
        <time>2012-04-07T14:13:30Z</time>
      </trkpt>
      <trkpt lat="45.76393" lon="4.66492">
        <ele>475</ele>
        <time>2012-04-07T14:13:34Z</time>
      </trkpt>
      <trkpt lat="45.76387" lon="4.66515">
        <ele>475</ele>
        <time>2012-04-07T14:13:38Z</time>
      </trkpt>
      <trkpt lat="45.76382" lon="4.66538">
        <ele>475</ele>
        <time>2012-04-07T14:13:42Z</time>
      </trkpt>
      <trkpt lat="45.76376" lon="4.66561">
        <ele>475</ele>
        <time>2012-04-07T14:13:46Z</time>
      </trkpt>
      <trkpt lat="45.7637" lon="4.66585">
        <ele>476</ele>
        <time>2012-04-07T14:13:50Z</time>
      </trkpt>
      <trkpt lat="45.76363" lon="4.66608">
        <ele>477</ele>
        <time>2012-04-07T14:13:54Z</time>
      </trkpt>
      <trkpt lat="45.76361" lon="4.6662">
        <ele>477</ele>
        <time>2012-04-07T14:13:56Z</time>
      </trkpt>
      <trkpt lat="45.76352" lon="4.66655">
        <ele>477</ele>
        <time>2012-04-07T14:14:02Z</time>
      </trkpt>
      <trkpt lat="45.76345" lon="4.66677">
        <ele>477</ele>
        <time>2012-04-07T14:14:06Z</time>
      </trkpt>
      <trkpt lat="45.7634" lon="4.66699">
        <ele>477</ele>
        <time>2012-04-07T14:14:10Z</time>
      </trkpt>
      <trkpt lat="45.76335" lon="4.66723">
        <ele>477</ele>
        <time>2012-04-07T14:14:14Z</time>
      </trkpt>
      <trkpt lat="45.76328" lon="4.66746">
        <ele>477</ele>
        <time>2012-04-07T14:14:18Z</time>
      </trkpt>
      <trkpt lat="45.76322" lon="4.6677">
        <ele>477</ele>
        <time>2012-04-07T14:14:22Z</time>
      </trkpt>
      <trkpt lat="45.76316" lon="4.6679">
        <ele>477</ele>
        <time>2012-04-07T14:14:26Z</time>
      </trkpt>
      <trkpt lat="45.76313" lon="4.66801">
        <ele>477</ele>
        <time>2012-04-07T14:14:29Z</time>
      </trkpt>
      <trkpt lat="45.76306" lon="4.66806">
        <ele>477</ele>
        <time>2012-04-07T14:14:32Z</time>
      </trkpt>
      <trkpt lat="45.76292" lon="4.66801">
        <ele>478</ele>
        <time>2012-04-07T14:14:37Z</time>
      </trkpt>
      <trkpt lat="45.76279" lon="4.66812">
        <ele>478</ele>
        <time>2012-04-07T14:14:41Z</time>
      </trkpt>
      <trkpt lat="45.76273" lon="4.66833">
        <ele>478</ele>
        <time>2012-04-07T14:14:46Z</time>
      </trkpt>
      <trkpt lat="45.7627" lon="4.66843">
        <ele>478</ele>
        <time>2012-04-07T14:14:49Z</time>
      </trkpt>
      <trkpt lat="45.76255" lon="4.66845">
        <ele>479</ele>
        <time>2012-04-07T14:14:54Z</time>
      </trkpt>
      <trkpt lat="45.76249" lon="4.66837">
        <ele>480</ele>
        <time>2012-04-07T14:14:56Z</time>
      </trkpt>
      <trkpt lat="45.76244" lon="4.6683">
        <ele>480</ele>
        <time>2012-04-07T14:14:59Z</time>
      </trkpt>
      <trkpt lat="45.76244" lon="4.6683">
        <ele>424.5</ele>
        <time>2012-04-07T14:15:10Z</time>
      </trkpt>
      <trkpt lat="45.76244" lon="4.6683">
        <ele>424.5</ele>
        <time>2012-04-07T14:16:59Z</time>
      </trkpt>
    </trkseg>
  </trk>
</gpx>